<?xml version="1.0" encoding="UTF-8" standalone="no" ?>
<gpx xmlns="http://www.topografix.com/GPX/1/1" xmlns:xsi="http://www.w3.org/2001/XMLSchema-instance" xsi:schemaLocation="http://www.topografix.com/GPX/1/1 http://www.topografix.com/GPX/1/1/gpx.xsd" version="1.1" creator="VisuGPX - https://www.visugpx.com">
  <metadata>
    <name>Pic de la Sagette depuis le lac de Fabrèges par la piste - vallée d'Ossau (64)</name>
    <desc><![CDATA[Soleil et personne rencontrée sur cette randonnée]]></desc>
  </metadata>
  <wpt lat="42.89593" lon="-0.40545">
    <ele>2024.887207</ele>
    <name><![CDATA[001]]></name>
    <desc><![CDATA[16-OCT-11 12:28:31]]></desc>
  </wpt>
  <wpt lat="42.88019" lon="-0.39613">
    <ele>1266.7</ele>
    <name><![CDATA[Fabrèges]]></name>
  </wpt>
  <wpt lat="42.87618" lon="-0.39731">
    <ele>1238.054199</ele>
    <name><![CDATA[Lac de Fabrège]]></name>
    <desc><![CDATA[Lac de Fabrèges 1238m]]></desc>
  </wpt>
  <wpt lat="42.89607" lon="-0.40566">
    <ele>2030.895508</ele>
    <name><![CDATA[Pic de la Sage]]></name>
    <desc><![CDATA[Pic de la Sagette 2031m]]></desc>
  </wpt>
  <wpt lat="42.89719" lon="-0.40368">
    <ele>2047.95874</ele>
    <name><![CDATA[sommet seconda]]></name>
    <desc><![CDATA[sommet secondaire 2048m]]></desc>
  </wpt>
  <wpt lat="42.89762" lon="-0.39627">
    <ele>1925.9</ele>
    <name><![CDATA[Télécabines]]></name>
  </wpt>
  <trk>
    <name><![CDATA[ACTIVE LOG 001]]></name>
    <trkseg>
      <trkpt lat="42.88056" lon="-0.39678">
        <ele>1278.210205</ele>
        <time>2011-10-16T08:39:06Z</time>
      </trkpt>
      <trkpt lat="42.88056" lon="-0.39678">
        <ele>1278.210205</ele>
        <time>2011-10-16T08:39:07Z</time>
      </trkpt>
      <trkpt lat="42.88054" lon="-0.39677">
        <ele>1277.729492</ele>
        <time>2011-10-16T08:39:55Z</time>
      </trkpt>
      <trkpt lat="42.88054" lon="-0.39677">
        <ele>1278.690918</ele>
        <time>2011-10-16T08:39:57Z</time>
      </trkpt>
      <trkpt lat="42.88053" lon="-0.39678">
        <ele>1279.171387</ele>
        <time>2011-10-16T08:40:19Z</time>
      </trkpt>
      <trkpt lat="42.88056" lon="-0.39677">
        <ele>1280.132812</ele>
        <time>2011-10-16T08:40:37Z</time>
      </trkpt>
      <trkpt lat="42.88073" lon="-0.39678">
        <ele>1282.05542</ele>
        <time>2011-10-16T08:40:57Z</time>
      </trkpt>
      <trkpt lat="42.88089" lon="-0.39687">
        <ele>1285.419922</ele>
        <time>2011-10-16T08:41:16Z</time>
      </trkpt>
      <trkpt lat="42.881" lon="-0.3969">
        <ele>1288.303955</ele>
        <time>2011-10-16T08:41:28Z</time>
      </trkpt>
      <trkpt lat="42.88101" lon="-0.3969">
        <ele>1287.823242</ele>
        <time>2011-10-16T08:41:29Z</time>
      </trkpt>
      <trkpt lat="42.88106" lon="-0.39692">
        <ele>1286.861816</ele>
        <time>2011-10-16T08:41:35Z</time>
      </trkpt>
      <trkpt lat="42.88123" lon="-0.39707">
        <ele>1289.265137</ele>
        <time>2011-10-16T08:41:56Z</time>
      </trkpt>
      <trkpt lat="42.88135" lon="-0.3972">
        <ele>1290.707031</ele>
        <time>2011-10-16T08:42:14Z</time>
      </trkpt>
      <trkpt lat="42.88154" lon="-0.39726">
        <ele>1293.110596</ele>
        <time>2011-10-16T08:42:33Z</time>
      </trkpt>
      <trkpt lat="42.88164" lon="-0.39728">
        <ele>1295.033203</ele>
        <time>2011-10-16T08:42:50Z</time>
      </trkpt>
      <trkpt lat="42.88173" lon="-0.39728">
        <ele>1295.513916</ele>
        <time>2011-10-16T08:43:04Z</time>
      </trkpt>
      <trkpt lat="42.88189" lon="-0.39725">
        <ele>1298.878418</ele>
        <time>2011-10-16T08:43:20Z</time>
      </trkpt>
      <trkpt lat="42.88206" lon="-0.3972">
        <ele>1300.801025</ele>
        <time>2011-10-16T08:43:38Z</time>
      </trkpt>
      <trkpt lat="42.88224" lon="-0.39713">
        <ele>1303.204346</ele>
        <time>2011-10-16T08:43:59Z</time>
      </trkpt>
      <trkpt lat="42.88243" lon="-0.39705">
        <ele>1306.088135</ele>
        <time>2011-10-16T08:44:20Z</time>
      </trkpt>
      <trkpt lat="42.88259" lon="-0.39692">
        <ele>1308.01123</ele>
        <time>2011-10-16T08:44:39Z</time>
      </trkpt>
      <trkpt lat="42.88277" lon="-0.39676">
        <ele>1310.89502</ele>
        <time>2011-10-16T08:45:00Z</time>
      </trkpt>
      <trkpt lat="42.88294" lon="-0.39666">
        <ele>1312.817627</ele>
        <time>2011-10-16T08:45:19Z</time>
      </trkpt>
      <trkpt lat="42.88308" lon="-0.39667">
        <ele>1313.778809</ele>
        <time>2011-10-16T08:45:34Z</time>
      </trkpt>
      <trkpt lat="42.88325" lon="-0.39677">
        <ele>1316.182129</ele>
        <time>2011-10-16T08:45:52Z</time>
      </trkpt>
      <trkpt lat="42.88343" lon="-0.3968">
        <ele>1318.585449</ele>
        <time>2011-10-16T08:46:10Z</time>
      </trkpt>
      <trkpt lat="42.88346" lon="-0.3968">
        <ele>1318.104736</ele>
        <time>2011-10-16T08:46:13Z</time>
      </trkpt>
      <trkpt lat="42.88352" lon="-0.39674">
        <ele>1319.066162</ele>
        <time>2011-10-16T08:46:24Z</time>
      </trkpt>
      <trkpt lat="42.88358" lon="-0.39673">
        <ele>1322.430664</ele>
        <time>2011-10-16T08:46:31Z</time>
      </trkpt>
      <trkpt lat="42.88375" lon="-0.39668">
        <ele>1323.39209</ele>
        <time>2011-10-16T08:46:46Z</time>
      </trkpt>
      <trkpt lat="42.88399" lon="-0.39662">
        <ele>1326.276123</ele>
        <time>2011-10-16T08:47:05Z</time>
      </trkpt>
      <trkpt lat="42.88415" lon="-0.39665">
        <ele>1328.679443</ele>
        <time>2011-10-16T08:47:22Z</time>
      </trkpt>
      <trkpt lat="42.88431" lon="-0.39668">
        <ele>1331.563232</ele>
        <time>2011-10-16T08:47:41Z</time>
      </trkpt>
      <trkpt lat="42.8845" lon="-0.39673">
        <ele>1334.447266</ele>
        <time>2011-10-16T08:48:02Z</time>
      </trkpt>
      <trkpt lat="42.88463" lon="-0.39684">
        <ele>1337.811768</ele>
        <time>2011-10-16T08:48:18Z</time>
      </trkpt>
      <trkpt lat="42.88476" lon="-0.39684">
        <ele>1340.215332</ele>
        <time>2011-10-16T08:48:36Z</time>
      </trkpt>
      <trkpt lat="42.88483" lon="-0.39681">
        <ele>1340.695801</ele>
        <time>2011-10-16T08:48:43Z</time>
      </trkpt>
      <trkpt lat="42.88503" lon="-0.39674">
        <ele>1343.579834</ele>
        <time>2011-10-16T08:49:02Z</time>
      </trkpt>
      <trkpt lat="42.88524" lon="-0.39686">
        <ele>1346.463867</ele>
        <time>2011-10-16T08:49:23Z</time>
      </trkpt>
      <trkpt lat="42.88535" lon="-0.39699">
        <ele>1348.866943</ele>
        <time>2011-10-16T08:49:41Z</time>
      </trkpt>
      <trkpt lat="42.88547" lon="-0.3971">
        <ele>1351.270264</ele>
        <time>2011-10-16T08:49:59Z</time>
      </trkpt>
      <trkpt lat="42.8855" lon="-0.3971">
        <ele>1350.789551</ele>
        <time>2011-10-16T08:50:05Z</time>
      </trkpt>
      <trkpt lat="42.88553" lon="-0.39683">
        <ele>1353.192871</ele>
        <time>2011-10-16T08:50:22Z</time>
      </trkpt>
      <trkpt lat="42.88546" lon="-0.39657">
        <ele>1353.673584</ele>
        <time>2011-10-16T08:50:41Z</time>
      </trkpt>
      <trkpt lat="42.88528" lon="-0.39648">
        <ele>1354.154297</ele>
        <time>2011-10-16T08:50:58Z</time>
      </trkpt>
      <trkpt lat="42.885" lon="-0.39632">
        <ele>1356.557617</ele>
        <time>2011-10-16T08:51:17Z</time>
      </trkpt>
      <trkpt lat="42.88482" lon="-0.39627">
        <ele>1357.519043</ele>
        <time>2011-10-16T08:51:31Z</time>
      </trkpt>
      <trkpt lat="42.88469" lon="-0.39626">
        <ele>1358.480225</ele>
        <time>2011-10-16T08:51:41Z</time>
      </trkpt>
      <trkpt lat="42.88452" lon="-0.3962">
        <ele>1361.364258</ele>
        <time>2011-10-16T08:51:58Z</time>
      </trkpt>
      <trkpt lat="42.88446" lon="-0.39618">
        <ele>1363.286865</ele>
        <time>2011-10-16T08:52:06Z</time>
      </trkpt>
      <trkpt lat="42.8843" lon="-0.39605">
        <ele>1365.209473</ele>
        <time>2011-10-16T08:52:24Z</time>
      </trkpt>
      <trkpt lat="42.88419" lon="-0.39589">
        <ele>1366.651367</ele>
        <time>2011-10-16T08:52:39Z</time>
      </trkpt>
      <trkpt lat="42.88409" lon="-0.39576">
        <ele>1369.054688</ele>
        <time>2011-10-16T08:52:55Z</time>
      </trkpt>
      <trkpt lat="42.88406" lon="-0.39568">
        <ele>1371.457764</ele>
        <time>2011-10-16T08:53:07Z</time>
      </trkpt>
      <trkpt lat="42.88402" lon="-0.3956">
        <ele>1374.342041</ele>
        <time>2011-10-16T08:53:16Z</time>
      </trkpt>
      <trkpt lat="42.88388" lon="-0.39549">
        <ele>1375.303223</ele>
        <time>2011-10-16T08:53:34Z</time>
      </trkpt>
      <trkpt lat="42.88374" lon="-0.39536">
        <ele>1378.187256</ele>
        <time>2011-10-16T08:53:48Z</time>
      </trkpt>
      <trkpt lat="42.88363" lon="-0.39529">
        <ele>1380.590576</ele>
        <time>2011-10-16T08:54:00Z</time>
      </trkpt>
      <trkpt lat="42.8835" lon="-0.3952">
        <ele>1382.993652</ele>
        <time>2011-10-16T08:54:13Z</time>
      </trkpt>
      <trkpt lat="42.88338" lon="-0.39514">
        <ele>1384.435791</ele>
        <time>2011-10-16T08:54:27Z</time>
      </trkpt>
      <trkpt lat="42.88321" lon="-0.39502">
        <ele>1386.838867</ele>
        <time>2011-10-16T08:54:42Z</time>
      </trkpt>
      <trkpt lat="42.88308" lon="-0.39493">
        <ele>1389.242432</ele>
        <time>2011-10-16T08:54:56Z</time>
      </trkpt>
      <trkpt lat="42.88301" lon="-0.39488">
        <ele>1390.684326</ele>
        <time>2011-10-16T08:55:06Z</time>
      </trkpt>
      <trkpt lat="42.88293" lon="-0.39483">
        <ele>1392.607178</ele>
        <time>2011-10-16T08:55:16Z</time>
      </trkpt>
      <trkpt lat="42.88284" lon="-0.39478">
        <ele>1394.049072</ele>
        <time>2011-10-16T08:55:28Z</time>
      </trkpt>
      <trkpt lat="42.88268" lon="-0.39463">
        <ele>1396.452393</ele>
        <time>2011-10-16T08:55:44Z</time>
      </trkpt>
      <trkpt lat="42.88259" lon="-0.39454">
        <ele>1397.413574</ele>
        <time>2011-10-16T08:55:57Z</time>
      </trkpt>
      <trkpt lat="42.88249" lon="-0.39446">
        <ele>1398.374756</ele>
        <time>2011-10-16T08:56:08Z</time>
      </trkpt>
      <trkpt lat="42.8824" lon="-0.39449">
        <ele>1398.374756</ele>
        <time>2011-10-16T08:56:15Z</time>
      </trkpt>
      <trkpt lat="42.88234" lon="-0.39448">
        <ele>1398.374756</ele>
        <time>2011-10-16T08:56:19Z</time>
      </trkpt>
      <trkpt lat="42.88215" lon="-0.39441">
        <ele>1400.297607</ele>
        <time>2011-10-16T08:56:38Z</time>
      </trkpt>
      <trkpt lat="42.88211" lon="-0.3944">
        <ele>1400.778076</ele>
        <time>2011-10-16T08:56:44Z</time>
      </trkpt>
      <trkpt lat="42.882" lon="-0.39434">
        <ele>1402.219971</ele>
        <time>2011-10-16T08:56:56Z</time>
      </trkpt>
      <trkpt lat="42.88185" lon="-0.39428">
        <ele>1403.181396</ele>
        <time>2011-10-16T08:57:08Z</time>
      </trkpt>
      <trkpt lat="42.88178" lon="-0.39424">
        <ele>1403.662109</ele>
        <time>2011-10-16T08:57:16Z</time>
      </trkpt>
      <trkpt lat="42.88165" lon="-0.39417">
        <ele>1405.104248</ele>
        <time>2011-10-16T08:57:30Z</time>
      </trkpt>
      <trkpt lat="42.88151" lon="-0.39412">
        <ele>1407.026855</ele>
        <time>2011-10-16T08:57:42Z</time>
      </trkpt>
      <trkpt lat="42.88139" lon="-0.3941">
        <ele>1409.910645</ele>
        <time>2011-10-16T08:57:53Z</time>
      </trkpt>
      <trkpt lat="42.88127" lon="-0.39406">
        <ele>1410.87207</ele>
        <time>2011-10-16T08:58:06Z</time>
      </trkpt>
      <trkpt lat="42.88122" lon="-0.39405">
        <ele>1412.794678</ele>
        <time>2011-10-16T08:58:12Z</time>
      </trkpt>
      <trkpt lat="42.8811" lon="-0.39405">
        <ele>1414.236572</ele>
        <time>2011-10-16T08:58:23Z</time>
      </trkpt>
      <trkpt lat="42.88098" lon="-0.39404">
        <ele>1414.717285</ele>
        <time>2011-10-16T08:58:31Z</time>
      </trkpt>
      <trkpt lat="42.88097" lon="-0.39402">
        <ele>1416.15918</ele>
        <time>2011-10-16T08:58:42Z</time>
      </trkpt>
      <trkpt lat="42.88101" lon="-0.39396">
        <ele>1418.081787</ele>
        <time>2011-10-16T08:58:52Z</time>
      </trkpt>
      <trkpt lat="42.88109" lon="-0.39394">
        <ele>1419.523926</ele>
        <time>2011-10-16T08:59:02Z</time>
      </trkpt>
      <trkpt lat="42.88121" lon="-0.39391">
        <ele>1420.485352</ele>
        <time>2011-10-16T08:59:14Z</time>
      </trkpt>
      <trkpt lat="42.88139" lon="-0.39383">
        <ele>1421.927246</ele>
        <time>2011-10-16T08:59:32Z</time>
      </trkpt>
      <trkpt lat="42.88154" lon="-0.39378">
        <ele>1424.811279</ele>
        <time>2011-10-16T08:59:46Z</time>
      </trkpt>
      <trkpt lat="42.88158" lon="-0.39376">
        <ele>1425.772461</ele>
        <time>2011-10-16T08:59:50Z</time>
      </trkpt>
      <trkpt lat="42.88167" lon="-0.39373">
        <ele>1426.733887</ele>
        <time>2011-10-16T08:59:58Z</time>
      </trkpt>
      <trkpt lat="42.88176" lon="-0.39379">
        <ele>1427.695068</ele>
        <time>2011-10-16T09:00:08Z</time>
      </trkpt>
      <trkpt lat="42.88181" lon="-0.39382">
        <ele>1428.656494</ele>
        <time>2011-10-16T09:00:14Z</time>
      </trkpt>
      <trkpt lat="42.882" lon="-0.39385">
        <ele>1429.617676</ele>
        <time>2011-10-16T09:00:31Z</time>
      </trkpt>
      <trkpt lat="42.88217" lon="-0.3938">
        <ele>1431.059814</ele>
        <time>2011-10-16T09:00:46Z</time>
      </trkpt>
      <trkpt lat="42.88232" lon="-0.39374">
        <ele>1432.982178</ele>
        <time>2011-10-16T09:01:01Z</time>
      </trkpt>
      <trkpt lat="42.88252" lon="-0.39358">
        <ele>1432.982178</ele>
        <time>2011-10-16T09:01:20Z</time>
      </trkpt>
      <trkpt lat="42.88265" lon="-0.39353">
        <ele>1433.462891</ele>
        <time>2011-10-16T09:01:35Z</time>
      </trkpt>
      <trkpt lat="42.88275" lon="-0.39375">
        <ele>1434.905029</ele>
        <time>2011-10-16T09:01:51Z</time>
      </trkpt>
      <trkpt lat="42.88283" lon="-0.39399">
        <ele>1436.347168</ele>
        <time>2011-10-16T09:02:05Z</time>
      </trkpt>
      <trkpt lat="42.88284" lon="-0.39405">
        <ele>1435.866211</ele>
        <time>2011-10-16T09:02:07Z</time>
      </trkpt>
      <trkpt lat="42.88287" lon="-0.39407">
        <ele>1436.347168</ele>
        <time>2011-10-16T09:02:10Z</time>
      </trkpt>
      <trkpt lat="42.88302" lon="-0.39421">
        <ele>1437.30835</ele>
        <time>2011-10-16T09:02:24Z</time>
      </trkpt>
      <trkpt lat="42.88308" lon="-0.3942">
        <ele>1437.789062</ele>
        <time>2011-10-16T09:02:29Z</time>
      </trkpt>
      <trkpt lat="42.88322" lon="-0.39417">
        <ele>1438.750488</ele>
        <time>2011-10-16T09:02:42Z</time>
      </trkpt>
      <trkpt lat="42.88332" lon="-0.39417">
        <ele>1440.192383</ele>
        <time>2011-10-16T09:02:53Z</time>
      </trkpt>
      <trkpt lat="42.88344" lon="-0.39415">
        <ele>1440.672852</ele>
        <time>2011-10-16T09:03:03Z</time>
      </trkpt>
      <trkpt lat="42.88357" lon="-0.39413">
        <ele>1442.595703</ele>
        <time>2011-10-16T09:03:14Z</time>
      </trkpt>
      <trkpt lat="42.88369" lon="-0.39412">
        <ele>1444.998779</ele>
        <time>2011-10-16T09:03:25Z</time>
      </trkpt>
      <trkpt lat="42.88384" lon="-0.39399">
        <ele>1447.4021</ele>
        <time>2011-10-16T09:03:41Z</time>
      </trkpt>
      <trkpt lat="42.88397" lon="-0.394">
        <ele>1449.80542</ele>
        <time>2011-10-16T09:03:54Z</time>
      </trkpt>
      <trkpt lat="42.88412" lon="-0.39408">
        <ele>1452.20874</ele>
        <time>2011-10-16T09:04:10Z</time>
      </trkpt>
      <trkpt lat="42.88426" lon="-0.39404">
        <ele>1454.131592</ele>
        <time>2011-10-16T09:04:21Z</time>
      </trkpt>
      <trkpt lat="42.8845" lon="-0.39396">
        <ele>1455.092773</ele>
        <time>2011-10-16T09:04:41Z</time>
      </trkpt>
      <trkpt lat="42.88472" lon="-0.39393">
        <ele>1456.534668</ele>
        <time>2011-10-16T09:05:00Z</time>
      </trkpt>
      <trkpt lat="42.88485" lon="-0.3939">
        <ele>1458.937988</ele>
        <time>2011-10-16T09:05:12Z</time>
      </trkpt>
      <trkpt lat="42.885" lon="-0.39392">
        <ele>1460.860596</ele>
        <time>2011-10-16T09:05:27Z</time>
      </trkpt>
      <trkpt lat="42.88512" lon="-0.39391">
        <ele>1462.30249</ele>
        <time>2011-10-16T09:05:39Z</time>
      </trkpt>
      <trkpt lat="42.88517" lon="-0.39388">
        <ele>1463.263916</ele>
        <time>2011-10-16T09:05:43Z</time>
      </trkpt>
      <trkpt lat="42.8852" lon="-0.39386">
        <ele>1463.744385</ele>
        <time>2011-10-16T09:05:46Z</time>
      </trkpt>
      <trkpt lat="42.88537" lon="-0.39376">
        <ele>1465.186523</ele>
        <time>2011-10-16T09:06:01Z</time>
      </trkpt>
      <trkpt lat="42.88544" lon="-0.39377">
        <ele>1465.667236</ele>
        <time>2011-10-16T09:06:07Z</time>
      </trkpt>
      <trkpt lat="42.88558" lon="-0.39383">
        <ele>1466.147705</ele>
        <time>2011-10-16T09:06:20Z</time>
      </trkpt>
      <trkpt lat="42.88561" lon="-0.39392">
        <ele>1467.109131</ele>
        <time>2011-10-16T09:06:28Z</time>
      </trkpt>
      <trkpt lat="42.88566" lon="-0.39401">
        <ele>1469.031982</ele>
        <time>2011-10-16T09:06:36Z</time>
      </trkpt>
      <trkpt lat="42.88577" lon="-0.39412">
        <ele>1471.435059</ele>
        <time>2011-10-16T09:06:49Z</time>
      </trkpt>
      <trkpt lat="42.88582" lon="-0.39417">
        <ele>1472.877197</ele>
        <time>2011-10-16T09:07:00Z</time>
      </trkpt>
      <trkpt lat="42.88585" lon="-0.39417">
        <ele>1472.877197</ele>
        <time>2011-10-16T09:07:03Z</time>
      </trkpt>
      <trkpt lat="42.88597" lon="-0.39418">
        <ele>1473.838379</ele>
        <time>2011-10-16T09:07:15Z</time>
      </trkpt>
      <trkpt lat="42.88601" lon="-0.3942">
        <ele>1474.319092</ele>
        <time>2011-10-16T09:07:19Z</time>
      </trkpt>
      <trkpt lat="42.88613" lon="-0.39419">
        <ele>1476.722412</ele>
        <time>2011-10-16T09:07:33Z</time>
      </trkpt>
      <trkpt lat="42.88624" lon="-0.39417">
        <ele>1479.125488</ele>
        <time>2011-10-16T09:07:44Z</time>
      </trkpt>
      <trkpt lat="42.88626" lon="-0.39416">
        <ele>1478.64502</ele>
        <time>2011-10-16T09:07:46Z</time>
      </trkpt>
      <trkpt lat="42.88634" lon="-0.39412">
        <ele>1481.528809</ele>
        <time>2011-10-16T09:07:55Z</time>
      </trkpt>
      <trkpt lat="42.88646" lon="-0.39404">
        <ele>1483.932129</ele>
        <time>2011-10-16T09:08:09Z</time>
      </trkpt>
      <trkpt lat="42.88654" lon="-0.39392">
        <ele>1484.893799</ele>
        <time>2011-10-16T09:08:26Z</time>
      </trkpt>
      <trkpt lat="42.88661" lon="-0.39376">
        <ele>1486.816162</ele>
        <time>2011-10-16T09:08:41Z</time>
      </trkpt>
      <trkpt lat="42.88672" lon="-0.39357">
        <ele>1489.700195</ele>
        <time>2011-10-16T09:08:57Z</time>
      </trkpt>
      <trkpt lat="42.88674" lon="-0.39352">
        <ele>1489.219482</ele>
        <time>2011-10-16T09:09:01Z</time>
      </trkpt>
      <trkpt lat="42.88678" lon="-0.39345">
        <ele>1490.661377</ele>
        <time>2011-10-16T09:09:06Z</time>
      </trkpt>
      <trkpt lat="42.88684" lon="-0.39336">
        <ele>1491.622803</ele>
        <time>2011-10-16T09:09:14Z</time>
      </trkpt>
      <trkpt lat="42.88688" lon="-0.39332">
        <ele>1490.661377</ele>
        <time>2011-10-16T09:09:19Z</time>
      </trkpt>
      <trkpt lat="42.88691" lon="-0.3933">
        <ele>1493.54541</ele>
        <time>2011-10-16T09:09:22Z</time>
      </trkpt>
      <trkpt lat="42.88692" lon="-0.3933">
        <ele>1490.661377</ele>
        <time>2011-10-16T09:09:23Z</time>
      </trkpt>
      <trkpt lat="42.88693" lon="-0.39329">
        <ele>1494.026123</ele>
        <time>2011-10-16T09:09:24Z</time>
      </trkpt>
      <trkpt lat="42.88696" lon="-0.39327">
        <ele>1492.584229</ele>
        <time>2011-10-16T09:09:27Z</time>
      </trkpt>
      <trkpt lat="42.88707" lon="-0.39308">
        <ele>1494.987305</ele>
        <time>2011-10-16T09:09:43Z</time>
      </trkpt>
      <trkpt lat="42.8872" lon="-0.39289">
        <ele>1495.94873</ele>
        <time>2011-10-16T09:09:58Z</time>
      </trkpt>
      <trkpt lat="42.88727" lon="-0.39284">
        <ele>1495.94873</ele>
        <time>2011-10-16T09:10:09Z</time>
      </trkpt>
      <trkpt lat="42.88734" lon="-0.39288">
        <ele>1495.94873</ele>
        <time>2011-10-16T09:10:16Z</time>
      </trkpt>
      <trkpt lat="42.88748" lon="-0.39312">
        <ele>1496.909912</ele>
        <time>2011-10-16T09:10:35Z</time>
      </trkpt>
      <trkpt lat="42.8875" lon="-0.39315">
        <ele>1496.909912</ele>
        <time>2011-10-16T09:10:40Z</time>
      </trkpt>
      <trkpt lat="42.88754" lon="-0.39343">
        <ele>1499.793945</ele>
        <time>2011-10-16T09:10:59Z</time>
      </trkpt>
      <trkpt lat="42.88761" lon="-0.3937">
        <ele>1502.197266</ele>
        <time>2011-10-16T09:11:16Z</time>
      </trkpt>
      <trkpt lat="42.88764" lon="-0.3938">
        <ele>1503.158691</ele>
        <time>2011-10-16T09:11:23Z</time>
      </trkpt>
      <trkpt lat="42.88771" lon="-0.39394">
        <ele>1506.523193</ele>
        <time>2011-10-16T09:11:36Z</time>
      </trkpt>
      <trkpt lat="42.88783" lon="-0.39407">
        <ele>1507.965332</ele>
        <time>2011-10-16T09:11:52Z</time>
      </trkpt>
      <trkpt lat="42.88795" lon="-0.3941">
        <ele>1510.368408</ele>
        <time>2011-10-16T09:12:04Z</time>
      </trkpt>
      <trkpt lat="42.88798" lon="-0.3941">
        <ele>1510.368408</ele>
        <time>2011-10-16T09:12:07Z</time>
      </trkpt>
      <trkpt lat="42.88802" lon="-0.39412">
        <ele>1511.329834</ele>
        <time>2011-10-16T09:12:10Z</time>
      </trkpt>
      <trkpt lat="42.88814" lon="-0.39414">
        <ele>1512.291016</ele>
        <time>2011-10-16T09:12:22Z</time>
      </trkpt>
      <trkpt lat="42.88831" lon="-0.39418">
        <ele>1514.213623</ele>
        <time>2011-10-16T09:12:37Z</time>
      </trkpt>
      <trkpt lat="42.88838" lon="-0.39429">
        <ele>1514.694336</ele>
        <time>2011-10-16T09:12:49Z</time>
      </trkpt>
      <trkpt lat="42.88834" lon="-0.39453">
        <ele>1517.0979</ele>
        <time>2011-10-16T09:13:06Z</time>
      </trkpt>
      <trkpt lat="42.88834" lon="-0.39457">
        <ele>1517.578369</ele>
        <time>2011-10-16T09:13:09Z</time>
      </trkpt>
      <trkpt lat="42.88833" lon="-0.39468">
        <ele>1518.059082</ele>
        <time>2011-10-16T09:13:18Z</time>
      </trkpt>
      <trkpt lat="42.88834" lon="-0.39474">
        <ele>1519.020508</ele>
        <time>2011-10-16T09:13:22Z</time>
      </trkpt>
      <trkpt lat="42.88841" lon="-0.39493">
        <ele>1519.981689</ele>
        <time>2011-10-16T09:13:34Z</time>
      </trkpt>
      <trkpt lat="42.88851" lon="-0.39508">
        <ele>1522.38501</ele>
        <time>2011-10-16T09:13:47Z</time>
      </trkpt>
      <trkpt lat="42.88859" lon="-0.39514">
        <ele>1523.826904</ele>
        <time>2011-10-16T09:13:57Z</time>
      </trkpt>
      <trkpt lat="42.88875" lon="-0.39526">
        <ele>1525.749512</ele>
        <time>2011-10-16T09:14:14Z</time>
      </trkpt>
      <trkpt lat="42.88888" lon="-0.39532">
        <ele>1526.710938</ele>
        <time>2011-10-16T09:14:29Z</time>
      </trkpt>
      <trkpt lat="42.88889" lon="-0.39535">
        <ele>1530.075439</ele>
        <time>2011-10-16T09:14:32Z</time>
      </trkpt>
      <trkpt lat="42.8889" lon="-0.39536">
        <ele>1527.19165</ele>
        <time>2011-10-16T09:14:33Z</time>
      </trkpt>
      <trkpt lat="42.8889" lon="-0.39538">
        <ele>1530.075439</ele>
        <time>2011-10-16T09:14:35Z</time>
      </trkpt>
      <trkpt lat="42.8889" lon="-0.39539">
        <ele>1529.594727</ele>
        <time>2011-10-16T09:14:37Z</time>
      </trkpt>
      <trkpt lat="42.88895" lon="-0.39541">
        <ele>1530.075439</ele>
        <time>2011-10-16T09:14:40Z</time>
      </trkpt>
      <trkpt lat="42.88906" lon="-0.39548">
        <ele>1532.479004</ele>
        <time>2011-10-16T09:14:53Z</time>
      </trkpt>
      <trkpt lat="42.8891" lon="-0.39549">
        <ele>1532.959473</ele>
        <time>2011-10-16T09:14:56Z</time>
      </trkpt>
      <trkpt lat="42.8893" lon="-0.39555">
        <ele>1533.920898</ele>
        <time>2011-10-16T09:15:12Z</time>
      </trkpt>
      <trkpt lat="42.88934" lon="-0.39557">
        <ele>1534.401611</ele>
        <time>2011-10-16T09:15:16Z</time>
      </trkpt>
      <trkpt lat="42.88942" lon="-0.39565">
        <ele>1534.401611</ele>
        <time>2011-10-16T09:15:26Z</time>
      </trkpt>
      <trkpt lat="42.88943" lon="-0.39568">
        <ele>1534.401611</ele>
        <time>2011-10-16T09:15:28Z</time>
      </trkpt>
      <trkpt lat="42.88942" lon="-0.39573">
        <ele>1534.882324</ele>
        <time>2011-10-16T09:15:32Z</time>
      </trkpt>
      <trkpt lat="42.88938" lon="-0.39579">
        <ele>1534.882324</ele>
        <time>2011-10-16T09:15:39Z</time>
      </trkpt>
      <trkpt lat="42.88935" lon="-0.39581">
        <ele>1535.362793</ele>
        <time>2011-10-16T09:15:42Z</time>
      </trkpt>
      <trkpt lat="42.88928" lon="-0.39587">
        <ele>1536.804688</ele>
        <time>2011-10-16T09:15:48Z</time>
      </trkpt>
      <trkpt lat="42.88927" lon="-0.39601">
        <ele>1538.246826</ele>
        <time>2011-10-16T09:15:58Z</time>
      </trkpt>
      <trkpt lat="42.88928" lon="-0.39602">
        <ele>1538.727539</ele>
        <time>2011-10-16T09:15:59Z</time>
      </trkpt>
      <trkpt lat="42.88931" lon="-0.39624">
        <ele>1541.611328</ele>
        <time>2011-10-16T09:16:14Z</time>
      </trkpt>
      <trkpt lat="42.88936" lon="-0.3963">
        <ele>1541.611328</ele>
        <time>2011-10-16T09:16:26Z</time>
      </trkpt>
      <trkpt lat="42.88941" lon="-0.39638">
        <ele>1541.611328</ele>
        <time>2011-10-16T09:16:39Z</time>
      </trkpt>
      <trkpt lat="42.8895" lon="-0.39645">
        <ele>1544.014648</ele>
        <time>2011-10-16T09:16:58Z</time>
      </trkpt>
      <trkpt lat="42.88958" lon="-0.39649">
        <ele>1545.456543</ele>
        <time>2011-10-16T09:17:14Z</time>
      </trkpt>
      <trkpt lat="42.88976" lon="-0.39654">
        <ele>1548.821289</ele>
        <time>2011-10-16T09:17:31Z</time>
      </trkpt>
      <trkpt lat="42.88989" lon="-0.39652">
        <ele>1550.263428</ele>
        <time>2011-10-16T09:17:43Z</time>
      </trkpt>
      <trkpt lat="42.8901" lon="-0.39651">
        <ele>1551.705322</ele>
        <time>2011-10-16T09:18:02Z</time>
      </trkpt>
      <trkpt lat="42.89026" lon="-0.39642">
        <ele>1554.108643</ele>
        <time>2011-10-16T09:18:18Z</time>
      </trkpt>
      <trkpt lat="42.89043" lon="-0.39644">
        <ele>1557.473145</ele>
        <time>2011-10-16T09:18:36Z</time>
      </trkpt>
      <trkpt lat="42.89044" lon="-0.39646">
        <ele>1556.992432</ele>
        <time>2011-10-16T09:18:38Z</time>
      </trkpt>
      <trkpt lat="42.89052" lon="-0.39658">
        <ele>1559.395752</ele>
        <time>2011-10-16T09:18:51Z</time>
      </trkpt>
      <trkpt lat="42.89058" lon="-0.39667">
        <ele>1561.799072</ele>
        <time>2011-10-16T09:19:01Z</time>
      </trkpt>
      <trkpt lat="42.89065" lon="-0.39675">
        <ele>1563.721436</ele>
        <time>2011-10-16T09:19:10Z</time>
      </trkpt>
      <trkpt lat="42.89076" lon="-0.39687">
        <ele>1566.125</ele>
        <time>2011-10-16T09:19:25Z</time>
      </trkpt>
      <trkpt lat="42.89082" lon="-0.39697">
        <ele>1567.566895</ele>
        <time>2011-10-16T09:19:33Z</time>
      </trkpt>
      <trkpt lat="42.89097" lon="-0.39716">
        <ele>1568.52832</ele>
        <time>2011-10-16T09:19:51Z</time>
      </trkpt>
      <trkpt lat="42.89103" lon="-0.39721">
        <ele>1569.970215</ele>
        <time>2011-10-16T09:19:58Z</time>
      </trkpt>
      <trkpt lat="42.89104" lon="-0.3973">
        <ele>1570.450928</ele>
        <time>2011-10-16T09:20:05Z</time>
      </trkpt>
      <trkpt lat="42.89092" lon="-0.39753">
        <ele>1571.892822</ele>
        <time>2011-10-16T09:20:26Z</time>
      </trkpt>
      <trkpt lat="42.89086" lon="-0.3977">
        <ele>1572.854248</ele>
        <time>2011-10-16T09:20:40Z</time>
      </trkpt>
      <trkpt lat="42.89088" lon="-0.3979">
        <ele>1574.776855</ele>
        <time>2011-10-16T09:20:58Z</time>
      </trkpt>
      <trkpt lat="42.89088" lon="-0.39791">
        <ele>1574.776855</ele>
        <time>2011-10-16T09:21:21Z</time>
      </trkpt>
      <trkpt lat="42.89086" lon="-0.39791">
        <ele>1574.776855</ele>
        <time>2011-10-16T09:23:22Z</time>
      </trkpt>
      <trkpt lat="42.89086" lon="-0.39791">
        <ele>1576.21875</ele>
        <time>2011-10-16T09:23:25Z</time>
      </trkpt>
      <trkpt lat="42.89085" lon="-0.39792">
        <ele>1576.21875</ele>
        <time>2011-10-16T09:23:40Z</time>
      </trkpt>
      <trkpt lat="42.89083" lon="-0.39795">
        <ele>1575.738037</ele>
        <time>2011-10-16T09:23:43Z</time>
      </trkpt>
      <trkpt lat="42.89077" lon="-0.39812">
        <ele>1576.699463</ele>
        <time>2011-10-16T09:23:56Z</time>
      </trkpt>
      <trkpt lat="42.8907" lon="-0.39835">
        <ele>1580.064209</ele>
        <time>2011-10-16T09:24:13Z</time>
      </trkpt>
      <trkpt lat="42.89058" lon="-0.39847">
        <ele>1581.986816</ele>
        <time>2011-10-16T09:24:26Z</time>
      </trkpt>
      <trkpt lat="42.8905" lon="-0.39852">
        <ele>1584.390137</ele>
        <time>2011-10-16T09:24:34Z</time>
      </trkpt>
      <trkpt lat="42.89033" lon="-0.39865">
        <ele>1587.273926</ele>
        <time>2011-10-16T09:24:51Z</time>
      </trkpt>
      <trkpt lat="42.89029" lon="-0.39888">
        <ele>1589.677246</ele>
        <time>2011-10-16T09:25:08Z</time>
      </trkpt>
      <trkpt lat="42.8903" lon="-0.39909">
        <ele>1591.599854</ele>
        <time>2011-10-16T09:25:24Z</time>
      </trkpt>
      <trkpt lat="42.8903" lon="-0.39916">
        <ele>1592.561279</ele>
        <time>2011-10-16T09:25:29Z</time>
      </trkpt>
      <trkpt lat="42.89031" lon="-0.39923">
        <ele>1593.522461</ele>
        <time>2011-10-16T09:25:33Z</time>
      </trkpt>
      <trkpt lat="42.89033" lon="-0.39929">
        <ele>1594.483643</ele>
        <time>2011-10-16T09:25:37Z</time>
      </trkpt>
      <trkpt lat="42.89047" lon="-0.3995">
        <ele>1595.925781</ele>
        <time>2011-10-16T09:25:58Z</time>
      </trkpt>
      <trkpt lat="42.89053" lon="-0.39961">
        <ele>1598.329102</ele>
        <time>2011-10-16T09:26:13Z</time>
      </trkpt>
      <trkpt lat="42.8906" lon="-0.3997">
        <ele>1600.251953</ele>
        <time>2011-10-16T09:26:32Z</time>
      </trkpt>
      <trkpt lat="42.89063" lon="-0.39972">
        <ele>1600.732422</ele>
        <time>2011-10-16T09:26:35Z</time>
      </trkpt>
      <trkpt lat="42.89074" lon="-0.39977">
        <ele>1602.174316</ele>
        <time>2011-10-16T09:26:46Z</time>
      </trkpt>
      <trkpt lat="42.89092" lon="-0.3999">
        <ele>1605.539062</ele>
        <time>2011-10-16T09:27:05Z</time>
      </trkpt>
      <trkpt lat="42.89102" lon="-0.39998">
        <ele>1606.500244</ele>
        <time>2011-10-16T09:27:15Z</time>
      </trkpt>
      <trkpt lat="42.89104" lon="-0.40003">
        <ele>1606.980957</ele>
        <time>2011-10-16T09:27:19Z</time>
      </trkpt>
      <trkpt lat="42.89104" lon="-0.40009">
        <ele>1607.46167</ele>
        <time>2011-10-16T09:27:23Z</time>
      </trkpt>
      <trkpt lat="42.89104" lon="-0.40036">
        <ele>1608.422852</ele>
        <time>2011-10-16T09:27:42Z</time>
      </trkpt>
      <trkpt lat="42.89105" lon="-0.40039">
        <ele>1607.942383</ele>
        <time>2011-10-16T09:27:46Z</time>
      </trkpt>
      <trkpt lat="42.89108" lon="-0.40053">
        <ele>1610.826172</ele>
        <time>2011-10-16T09:27:59Z</time>
      </trkpt>
      <trkpt lat="42.89113" lon="-0.40065">
        <ele>1614.190918</ele>
        <time>2011-10-16T09:28:12Z</time>
      </trkpt>
      <trkpt lat="42.89123" lon="-0.40062">
        <ele>1617.074951</ele>
        <time>2011-10-16T09:28:28Z</time>
      </trkpt>
      <trkpt lat="42.89124" lon="-0.40059">
        <ele>1618.997559</ele>
        <time>2011-10-16T09:28:31Z</time>
      </trkpt>
      <trkpt lat="42.89128" lon="-0.40042">
        <ele>1622.842773</ele>
        <time>2011-10-16T09:28:46Z</time>
      </trkpt>
      <trkpt lat="42.89129" lon="-0.40041">
        <ele>1622.362061</ele>
        <time>2011-10-16T09:28:47Z</time>
      </trkpt>
      <trkpt lat="42.8913" lon="-0.40036">
        <ele>1621.881348</ele>
        <time>2011-10-16T09:29:01Z</time>
      </trkpt>
      <trkpt lat="42.89131" lon="-0.40034">
        <ele>1623.803955</ele>
        <time>2011-10-16T09:29:40Z</time>
      </trkpt>
      <trkpt lat="42.89133" lon="-0.40026">
        <ele>1624.765381</ele>
        <time>2011-10-16T09:29:55Z</time>
      </trkpt>
      <trkpt lat="42.8914" lon="-0.40013">
        <ele>1625.24585</ele>
        <time>2011-10-16T09:30:08Z</time>
      </trkpt>
      <trkpt lat="42.89142" lon="-0.4001">
        <ele>1626.207275</ele>
        <time>2011-10-16T09:30:12Z</time>
      </trkpt>
      <trkpt lat="42.89145" lon="-0.40001">
        <ele>1628.130127</ele>
        <time>2011-10-16T09:30:20Z</time>
      </trkpt>
      <trkpt lat="42.8915" lon="-0.40005">
        <ele>1631.494629</ele>
        <time>2011-10-16T09:30:34Z</time>
      </trkpt>
      <trkpt lat="42.89156" lon="-0.4002">
        <ele>1634.859375</ele>
        <time>2011-10-16T09:30:47Z</time>
      </trkpt>
      <trkpt lat="42.89156" lon="-0.40021">
        <ele>1635.339844</ele>
        <time>2011-10-16T09:30:48Z</time>
      </trkpt>
      <trkpt lat="42.89162" lon="-0.40024">
        <ele>1637.743164</ele>
        <time>2011-10-16T09:31:01Z</time>
      </trkpt>
      <trkpt lat="42.89166" lon="-0.4002">
        <ele>1640.146484</ele>
        <time>2011-10-16T09:31:14Z</time>
      </trkpt>
      <trkpt lat="42.89169" lon="-0.40018">
        <ele>1641.588379</ele>
        <time>2011-10-16T09:31:20Z</time>
      </trkpt>
      <trkpt lat="42.89172" lon="-0.4">
        <ele>1643.030273</ele>
        <time>2011-10-16T09:31:33Z</time>
      </trkpt>
      <trkpt lat="42.89172" lon="-0.39994">
        <ele>1643.510986</ele>
        <time>2011-10-16T09:31:37Z</time>
      </trkpt>
      <trkpt lat="42.89179" lon="-0.39981">
        <ele>1644.953125</ele>
        <time>2011-10-16T09:31:51Z</time>
      </trkpt>
      <trkpt lat="42.89179" lon="-0.40008">
        <ele>1646.875732</ele>
        <time>2011-10-16T09:32:10Z</time>
      </trkpt>
      <trkpt lat="42.89185" lon="-0.40038">
        <ele>1647.837158</ele>
        <time>2011-10-16T09:32:31Z</time>
      </trkpt>
      <trkpt lat="42.89186" lon="-0.40064">
        <ele>1651.20166</ele>
        <time>2011-10-16T09:32:51Z</time>
      </trkpt>
      <trkpt lat="42.89183" lon="-0.40084">
        <ele>1652.162842</ele>
        <time>2011-10-16T09:33:20Z</time>
      </trkpt>
      <trkpt lat="42.89174" lon="-0.40112">
        <ele>1654.085693</ele>
        <time>2011-10-16T09:33:39Z</time>
      </trkpt>
      <trkpt lat="42.89157" lon="-0.4013">
        <ele>1657.450195</ele>
        <time>2011-10-16T09:33:59Z</time>
      </trkpt>
      <trkpt lat="42.89155" lon="-0.40132">
        <ele>1657.930908</ele>
        <time>2011-10-16T09:34:02Z</time>
      </trkpt>
      <trkpt lat="42.89144" lon="-0.40162">
        <ele>1659.853271</ele>
        <time>2011-10-16T09:34:24Z</time>
      </trkpt>
      <trkpt lat="42.89142" lon="-0.40171">
        <ele>1663.218262</ele>
        <time>2011-10-16T09:34:31Z</time>
      </trkpt>
      <trkpt lat="42.89142" lon="-0.40172">
        <ele>1659.853271</ele>
        <time>2011-10-16T09:34:32Z</time>
      </trkpt>
      <trkpt lat="42.8914" lon="-0.40179">
        <ele>1663.69873</ele>
        <time>2011-10-16T09:34:38Z</time>
      </trkpt>
      <trkpt lat="42.89133" lon="-0.402">
        <ele>1666.102051</ele>
        <time>2011-10-16T09:34:54Z</time>
      </trkpt>
      <trkpt lat="42.89126" lon="-0.40223">
        <ele>1668.505371</ele>
        <time>2011-10-16T09:35:11Z</time>
      </trkpt>
      <trkpt lat="42.8912" lon="-0.40239">
        <ele>1671.869873</ele>
        <time>2011-10-16T09:35:25Z</time>
      </trkpt>
      <trkpt lat="42.89119" lon="-0.40241">
        <ele>1672.350586</ele>
        <time>2011-10-16T09:35:27Z</time>
      </trkpt>
      <trkpt lat="42.8911" lon="-0.40263">
        <ele>1674.273193</ele>
        <time>2011-10-16T09:35:46Z</time>
      </trkpt>
      <trkpt lat="42.89098" lon="-0.40284">
        <ele>1677.637939</ele>
        <time>2011-10-16T09:36:05Z</time>
      </trkpt>
      <trkpt lat="42.89098" lon="-0.40296">
        <ele>1678.599365</ele>
        <time>2011-10-16T09:36:14Z</time>
      </trkpt>
      <trkpt lat="42.89109" lon="-0.40289">
        <ele>1679.560547</ele>
        <time>2011-10-16T09:36:29Z</time>
      </trkpt>
      <trkpt lat="42.8912" lon="-0.40275">
        <ele>1680.521973</ele>
        <time>2011-10-16T09:36:44Z</time>
      </trkpt>
      <trkpt lat="42.89129" lon="-0.40266">
        <ele>1683.886475</ele>
        <time>2011-10-16T09:36:57Z</time>
      </trkpt>
      <trkpt lat="42.89141" lon="-0.40252">
        <ele>1686.289795</ele>
        <time>2011-10-16T09:37:15Z</time>
      </trkpt>
      <trkpt lat="42.89151" lon="-0.40242">
        <ele>1689.654297</ele>
        <time>2011-10-16T09:37:27Z</time>
      </trkpt>
      <trkpt lat="42.89152" lon="-0.40241">
        <ele>1689.654297</ele>
        <time>2011-10-16T09:37:28Z</time>
      </trkpt>
      <trkpt lat="42.89169" lon="-0.40229">
        <ele>1690.13501</ele>
        <time>2011-10-16T09:37:46Z</time>
      </trkpt>
      <trkpt lat="42.89183" lon="-0.40215">
        <ele>1693.499756</ele>
        <time>2011-10-16T09:38:03Z</time>
      </trkpt>
      <trkpt lat="42.89193" lon="-0.40203">
        <ele>1696.864258</ele>
        <time>2011-10-16T09:38:17Z</time>
      </trkpt>
      <trkpt lat="42.89207" lon="-0.40192">
        <ele>1698.306152</ele>
        <time>2011-10-16T09:38:33Z</time>
      </trkpt>
      <trkpt lat="42.89207" lon="-0.40191">
        <ele>1698.786865</ele>
        <time>2011-10-16T09:38:34Z</time>
      </trkpt>
      <trkpt lat="42.89212" lon="-0.40185">
        <ele>1699.748291</ele>
        <time>2011-10-16T09:38:41Z</time>
      </trkpt>
      <trkpt lat="42.89215" lon="-0.40183">
        <ele>1700.229004</ele>
        <time>2011-10-16T09:38:44Z</time>
      </trkpt>
      <trkpt lat="42.8923" lon="-0.4017">
        <ele>1702.63208</ele>
        <time>2011-10-16T09:39:02Z</time>
      </trkpt>
      <trkpt lat="42.89245" lon="-0.40155">
        <ele>1704.554688</ele>
        <time>2011-10-16T09:39:21Z</time>
      </trkpt>
      <trkpt lat="42.89254" lon="-0.40143">
        <ele>1705.996582</ele>
        <time>2011-10-16T09:39:31Z</time>
      </trkpt>
      <trkpt lat="42.89256" lon="-0.40136">
        <ele>1707.919434</ele>
        <time>2011-10-16T09:39:36Z</time>
      </trkpt>
      <trkpt lat="42.8926" lon="-0.40116">
        <ele>1708.880859</ele>
        <time>2011-10-16T09:39:54Z</time>
      </trkpt>
      <trkpt lat="42.89261" lon="-0.40107">
        <ele>1710.322754</ele>
        <time>2011-10-16T09:40:06Z</time>
      </trkpt>
      <trkpt lat="42.89262" lon="-0.40104">
        <ele>1710.322754</ele>
        <time>2011-10-16T09:40:09Z</time>
      </trkpt>
      <trkpt lat="42.8927" lon="-0.40087">
        <ele>1713.687256</ele>
        <time>2011-10-16T09:40:24Z</time>
      </trkpt>
      <trkpt lat="42.89284" lon="-0.40075">
        <ele>1714.167969</ele>
        <time>2011-10-16T09:40:41Z</time>
      </trkpt>
      <trkpt lat="42.89294" lon="-0.40064">
        <ele>1717.052002</ele>
        <time>2011-10-16T09:40:59Z</time>
      </trkpt>
      <trkpt lat="42.89305" lon="-0.40048">
        <ele>1718.974609</ele>
        <time>2011-10-16T09:41:15Z</time>
      </trkpt>
      <trkpt lat="42.89319" lon="-0.40039">
        <ele>1721.377686</ele>
        <time>2011-10-16T09:41:31Z</time>
      </trkpt>
      <trkpt lat="42.89318" lon="-0.40055">
        <ele>1723.781006</ele>
        <time>2011-10-16T09:41:46Z</time>
      </trkpt>
      <trkpt lat="42.89318" lon="-0.40058">
        <ele>1723.781006</ele>
        <time>2011-10-16T09:41:48Z</time>
      </trkpt>
      <trkpt lat="42.8931" lon="-0.40087">
        <ele>1726.18457</ele>
        <time>2011-10-16T09:42:10Z</time>
      </trkpt>
      <trkpt lat="42.89299" lon="-0.40108">
        <ele>1728.107178</ele>
        <time>2011-10-16T09:42:29Z</time>
      </trkpt>
      <trkpt lat="42.89302" lon="-0.40127">
        <ele>1729.068359</ele>
        <time>2011-10-16T09:42:44Z</time>
      </trkpt>
      <trkpt lat="42.89307" lon="-0.40142">
        <ele>1731.952393</ele>
        <time>2011-10-16T09:42:59Z</time>
      </trkpt>
      <trkpt lat="42.89307" lon="-0.40164">
        <ele>1735.316895</ele>
        <time>2011-10-16T09:43:16Z</time>
      </trkpt>
      <trkpt lat="42.89307" lon="-0.4017">
        <ele>1735.316895</ele>
        <time>2011-10-16T09:43:20Z</time>
      </trkpt>
      <trkpt lat="42.89309" lon="-0.40172">
        <ele>1735.797607</ele>
        <time>2011-10-16T09:43:22Z</time>
      </trkpt>
      <trkpt lat="42.89315" lon="-0.40171">
        <ele>1736.27832</ele>
        <time>2011-10-16T09:43:28Z</time>
      </trkpt>
      <trkpt lat="42.89321" lon="-0.40142">
        <ele>1738.681641</ele>
        <time>2011-10-16T09:43:47Z</time>
      </trkpt>
      <trkpt lat="42.8933" lon="-0.40123">
        <ele>1739.642822</ele>
        <time>2011-10-16T09:44:03Z</time>
      </trkpt>
      <trkpt lat="42.89341" lon="-0.40106">
        <ele>1741.565674</ele>
        <time>2011-10-16T09:44:20Z</time>
      </trkpt>
      <trkpt lat="42.89348" lon="-0.40098">
        <ele>1744.449463</ele>
        <time>2011-10-16T09:44:30Z</time>
      </trkpt>
      <trkpt lat="42.89355" lon="-0.4009">
        <ele>1747.333496</ele>
        <time>2011-10-16T09:44:41Z</time>
      </trkpt>
      <trkpt lat="42.89356" lon="-0.40089">
        <ele>1747.814209</ele>
        <time>2011-10-16T09:44:42Z</time>
      </trkpt>
      <trkpt lat="42.8937" lon="-0.40075">
        <ele>1749.736816</ele>
        <time>2011-10-16T09:44:59Z</time>
      </trkpt>
      <trkpt lat="42.89376" lon="-0.40048">
        <ele>1751.659424</ele>
        <time>2011-10-16T09:45:18Z</time>
      </trkpt>
      <trkpt lat="42.89379" lon="-0.40026">
        <ele>1754.062744</ele>
        <time>2011-10-16T09:45:35Z</time>
      </trkpt>
      <trkpt lat="42.89381" lon="-0.40025">
        <ele>1754.062744</ele>
        <time>2011-10-16T09:45:37Z</time>
      </trkpt>
      <trkpt lat="42.89385" lon="-0.40032">
        <ele>1755.023926</ele>
        <time>2011-10-16T09:45:44Z</time>
      </trkpt>
      <trkpt lat="42.89387" lon="-0.40059">
        <ele>1758.388672</ele>
        <time>2011-10-16T09:46:04Z</time>
      </trkpt>
      <trkpt lat="42.8939" lon="-0.40087">
        <ele>1760.311279</ele>
        <time>2011-10-16T09:46:24Z</time>
      </trkpt>
      <trkpt lat="42.8939" lon="-0.40096">
        <ele>1763.675781</ele>
        <time>2011-10-16T09:46:31Z</time>
      </trkpt>
      <trkpt lat="42.89389" lon="-0.40097">
        <ele>1763.195312</ele>
        <time>2011-10-16T09:46:32Z</time>
      </trkpt>
      <trkpt lat="42.89386" lon="-0.40122">
        <ele>1767.040527</ele>
        <time>2011-10-16T09:46:52Z</time>
      </trkpt>
      <trkpt lat="42.89382" lon="-0.40133">
        <ele>1768.482422</ele>
        <time>2011-10-16T09:47:02Z</time>
      </trkpt>
      <trkpt lat="42.89379" lon="-0.40161">
        <ele>1771.846924</ele>
        <time>2011-10-16T09:47:23Z</time>
      </trkpt>
      <trkpt lat="42.89382" lon="-0.40183">
        <ele>1772.808594</ele>
        <time>2011-10-16T09:47:41Z</time>
      </trkpt>
      <trkpt lat="42.89379" lon="-0.40194">
        <ele>1774.731201</ele>
        <time>2011-10-16T09:47:50Z</time>
      </trkpt>
      <trkpt lat="42.89368" lon="-0.4022">
        <ele>1777.61499</ele>
        <time>2011-10-16T09:48:11Z</time>
      </trkpt>
      <trkpt lat="42.89368" lon="-0.40229">
        <ele>1778.576416</ele>
        <time>2011-10-16T09:48:17Z</time>
      </trkpt>
      <trkpt lat="42.89378" lon="-0.40223">
        <ele>1780.018311</ele>
        <time>2011-10-16T09:48:30Z</time>
      </trkpt>
      <trkpt lat="42.8939" lon="-0.40203">
        <ele>1781.460205</ele>
        <time>2011-10-16T09:48:47Z</time>
      </trkpt>
      <trkpt lat="42.89402" lon="-0.40186">
        <ele>1784.824951</ele>
        <time>2011-10-16T09:49:02Z</time>
      </trkpt>
      <trkpt lat="42.8941" lon="-0.40171">
        <ele>1786.747314</ele>
        <time>2011-10-16T09:49:16Z</time>
      </trkpt>
      <trkpt lat="42.89414" lon="-0.40161">
        <ele>1787.228027</ele>
        <time>2011-10-16T09:49:25Z</time>
      </trkpt>
      <trkpt lat="42.89419" lon="-0.40138">
        <ele>1789.631592</ele>
        <time>2011-10-16T09:49:41Z</time>
      </trkpt>
      <trkpt lat="42.89428" lon="-0.40117">
        <ele>1792.034912</ele>
        <time>2011-10-16T09:49:58Z</time>
      </trkpt>
      <trkpt lat="42.89439" lon="-0.40103">
        <ele>1795.399414</ele>
        <time>2011-10-16T09:50:14Z</time>
      </trkpt>
      <trkpt lat="42.89452" lon="-0.40083">
        <ele>1797.802734</ele>
        <time>2011-10-16T09:50:32Z</time>
      </trkpt>
      <trkpt lat="42.89461" lon="-0.40058">
        <ele>1800.206055</ele>
        <time>2011-10-16T09:50:50Z</time>
      </trkpt>
      <trkpt lat="42.8947" lon="-0.40033">
        <ele>1803.570557</ele>
        <time>2011-10-16T09:51:09Z</time>
      </trkpt>
      <trkpt lat="42.89478" lon="-0.40015">
        <ele>1806.45459</ele>
        <time>2011-10-16T09:51:25Z</time>
      </trkpt>
      <trkpt lat="42.89487" lon="-0.39995">
        <ele>1809.338623</ele>
        <time>2011-10-16T09:51:44Z</time>
      </trkpt>
      <trkpt lat="42.89494" lon="-0.39978">
        <ele>1810.299805</ele>
        <time>2011-10-16T09:51:57Z</time>
      </trkpt>
      <trkpt lat="42.89496" lon="-0.39974">
        <ele>1811.741943</ele>
        <time>2011-10-16T09:52:00Z</time>
      </trkpt>
      <trkpt lat="42.89496" lon="-0.39972">
        <ele>1812.222412</ele>
        <time>2011-10-16T09:52:01Z</time>
      </trkpt>
      <trkpt lat="42.89501" lon="-0.39948">
        <ele>1813.664307</ele>
        <time>2011-10-16T09:52:19Z</time>
      </trkpt>
      <trkpt lat="42.89508" lon="-0.39927">
        <ele>1817.029053</ele>
        <time>2011-10-16T09:52:36Z</time>
      </trkpt>
      <trkpt lat="42.89516" lon="-0.39908">
        <ele>1819.432373</ele>
        <time>2011-10-16T09:52:52Z</time>
      </trkpt>
      <trkpt lat="42.89527" lon="-0.39888">
        <ele>1822.316406</ele>
        <time>2011-10-16T09:53:10Z</time>
      </trkpt>
      <trkpt lat="42.89532" lon="-0.39879">
        <ele>1823.758301</ele>
        <time>2011-10-16T09:53:18Z</time>
      </trkpt>
      <trkpt lat="42.89538" lon="-0.39863">
        <ele>1825.680908</ele>
        <time>2011-10-16T09:53:31Z</time>
      </trkpt>
      <trkpt lat="42.89547" lon="-0.39842">
        <ele>1829.04541</ele>
        <time>2011-10-16T09:53:48Z</time>
      </trkpt>
      <trkpt lat="42.89551" lon="-0.39847">
        <ele>1830.006836</ele>
        <time>2011-10-16T09:54:01Z</time>
      </trkpt>
      <trkpt lat="42.89553" lon="-0.39872">
        <ele>1832.890625</ele>
        <time>2011-10-16T09:54:22Z</time>
      </trkpt>
      <trkpt lat="42.89553" lon="-0.399">
        <ele>1835.774658</ele>
        <time>2011-10-16T09:54:44Z</time>
      </trkpt>
      <trkpt lat="42.89552" lon="-0.39914">
        <ele>1838.178223</ele>
        <time>2011-10-16T09:54:55Z</time>
      </trkpt>
      <trkpt lat="42.89557" lon="-0.39937">
        <ele>1842.023438</ele>
        <time>2011-10-16T09:55:13Z</time>
      </trkpt>
      <trkpt lat="42.89568" lon="-0.39958">
        <ele>1843.946045</ele>
        <time>2011-10-16T09:55:32Z</time>
      </trkpt>
      <trkpt lat="42.89571" lon="-0.39962">
        <ele>1843.946045</ele>
        <time>2011-10-16T09:55:37Z</time>
      </trkpt>
      <trkpt lat="42.89573" lon="-0.39964">
        <ele>1844.426514</ele>
        <time>2011-10-16T09:55:39Z</time>
      </trkpt>
      <trkpt lat="42.89584" lon="-0.3998">
        <ele>1847.79126</ele>
        <time>2011-10-16T09:55:55Z</time>
      </trkpt>
      <trkpt lat="42.89595" lon="-0.39991">
        <ele>1849.713867</ele>
        <time>2011-10-16T09:56:10Z</time>
      </trkpt>
      <trkpt lat="42.89599" lon="-0.40001">
        <ele>1851.155762</ele>
        <time>2011-10-16T09:56:20Z</time>
      </trkpt>
      <trkpt lat="42.8959" lon="-0.40026">
        <ele>1853.559326</ele>
        <time>2011-10-16T09:56:41Z</time>
      </trkpt>
      <trkpt lat="42.89584" lon="-0.4004">
        <ele>1854.520508</ele>
        <time>2011-10-16T09:56:52Z</time>
      </trkpt>
      <trkpt lat="42.89586" lon="-0.40043">
        <ele>1854.520508</ele>
        <time>2011-10-16T09:56:55Z</time>
      </trkpt>
      <trkpt lat="42.8959" lon="-0.40043">
        <ele>1855.481934</ele>
        <time>2011-10-16T09:56:59Z</time>
      </trkpt>
      <trkpt lat="42.89608" lon="-0.40024">
        <ele>1856.923828</ele>
        <time>2011-10-16T09:57:19Z</time>
      </trkpt>
      <trkpt lat="42.8962" lon="-0.40006">
        <ele>1860.28833</ele>
        <time>2011-10-16T09:57:33Z</time>
      </trkpt>
      <trkpt lat="42.89625" lon="-0.39979">
        <ele>1861.730469</ele>
        <time>2011-10-16T09:57:52Z</time>
      </trkpt>
      <trkpt lat="42.89618" lon="-0.39954">
        <ele>1864.614258</ele>
        <time>2011-10-16T09:58:11Z</time>
      </trkpt>
      <trkpt lat="42.89619" lon="-0.39937">
        <ele>1865.094971</ele>
        <time>2011-10-16T09:58:22Z</time>
      </trkpt>
      <trkpt lat="42.89624" lon="-0.39915">
        <ele>1867.498047</ele>
        <time>2011-10-16T09:58:38Z</time>
      </trkpt>
      <trkpt lat="42.89624" lon="-0.3989">
        <ele>1869.901611</ele>
        <time>2011-10-16T09:58:55Z</time>
      </trkpt>
      <trkpt lat="42.89625" lon="-0.39875">
        <ele>1871.343506</ele>
        <time>2011-10-16T09:59:06Z</time>
      </trkpt>
      <trkpt lat="42.89632" lon="-0.39855">
        <ele>1874.227539</ele>
        <time>2011-10-16T09:59:23Z</time>
      </trkpt>
      <trkpt lat="42.89641" lon="-0.39849">
        <ele>1877.111572</ele>
        <time>2011-10-16T09:59:35Z</time>
      </trkpt>
      <trkpt lat="42.8966" lon="-0.39843">
        <ele>1879.514648</ele>
        <time>2011-10-16T09:59:54Z</time>
      </trkpt>
      <trkpt lat="42.89667" lon="-0.39835">
        <ele>1880.956787</ele>
        <time>2011-10-16T10:00:02Z</time>
      </trkpt>
      <trkpt lat="42.89669" lon="-0.3981">
        <ele>1883.840576</ele>
        <time>2011-10-16T10:00:20Z</time>
      </trkpt>
      <trkpt lat="42.89677" lon="-0.39788">
        <ele>1885.763428</ele>
        <time>2011-10-16T10:00:38Z</time>
      </trkpt>
      <trkpt lat="42.8969" lon="-0.39776">
        <ele>1886.244141</ele>
        <time>2011-10-16T10:00:51Z</time>
      </trkpt>
      <trkpt lat="42.89693" lon="-0.39754">
        <ele>1887.686035</ele>
        <time>2011-10-16T10:01:07Z</time>
      </trkpt>
      <trkpt lat="42.89694" lon="-0.39747">
        <ele>1888.166748</ele>
        <time>2011-10-16T10:01:12Z</time>
      </trkpt>
      <trkpt lat="42.89699" lon="-0.39723">
        <ele>1890.569824</ele>
        <time>2011-10-16T10:01:30Z</time>
      </trkpt>
      <trkpt lat="42.897" lon="-0.3971">
        <ele>1892.011963</ele>
        <time>2011-10-16T10:01:45Z</time>
      </trkpt>
      <trkpt lat="42.89703" lon="-0.39688">
        <ele>1894.415039</ele>
        <time>2011-10-16T10:02:01Z</time>
      </trkpt>
      <trkpt lat="42.89703" lon="-0.39663">
        <ele>1894.895752</ele>
        <time>2011-10-16T10:02:19Z</time>
      </trkpt>
      <trkpt lat="42.89702" lon="-0.39653">
        <ele>1897.779785</ele>
        <time>2011-10-16T10:02:28Z</time>
      </trkpt>
      <trkpt lat="42.89711" lon="-0.3964">
        <ele>1899.22168</ele>
        <time>2011-10-16T10:02:45Z</time>
      </trkpt>
      <trkpt lat="42.89719" lon="-0.39632">
        <ele>1899.702393</ele>
        <time>2011-10-16T10:02:58Z</time>
      </trkpt>
      <trkpt lat="42.8973" lon="-0.39636">
        <ele>1899.22168</ele>
        <time>2011-10-16T10:03:06Z</time>
      </trkpt>
      <trkpt lat="42.89741" lon="-0.39653">
        <ele>1900.663818</ele>
        <time>2011-10-16T10:03:23Z</time>
      </trkpt>
      <trkpt lat="42.89744" lon="-0.39669">
        <ele>1903.067139</ele>
        <time>2011-10-16T10:03:34Z</time>
      </trkpt>
      <trkpt lat="42.89749" lon="-0.39694">
        <ele>1902.586426</ele>
        <time>2011-10-16T10:03:54Z</time>
      </trkpt>
      <trkpt lat="42.8975" lon="-0.39695">
        <ele>1905.950928</ele>
        <time>2011-10-16T10:03:55Z</time>
      </trkpt>
      <trkpt lat="42.89751" lon="-0.39697">
        <ele>1906.912354</ele>
        <time>2011-10-16T10:03:57Z</time>
      </trkpt>
      <trkpt lat="42.89752" lon="-0.39698">
        <ele>1906.912354</ele>
        <time>2011-10-16T10:03:59Z</time>
      </trkpt>
      <trkpt lat="42.89756" lon="-0.39703">
        <ele>1906.912354</ele>
        <time>2011-10-16T10:04:07Z</time>
      </trkpt>
      <trkpt lat="42.89757" lon="-0.39707">
        <ele>1907.393066</ele>
        <time>2011-10-16T10:04:11Z</time>
      </trkpt>
      <trkpt lat="42.89757" lon="-0.39708">
        <ele>1907.873779</ele>
        <time>2011-10-16T10:04:12Z</time>
      </trkpt>
      <trkpt lat="42.89758" lon="-0.39711">
        <ele>1908.834961</ele>
        <time>2011-10-16T10:04:14Z</time>
      </trkpt>
      <trkpt lat="42.89758" lon="-0.39713">
        <ele>1908.834961</ele>
        <time>2011-10-16T10:04:16Z</time>
      </trkpt>
      <trkpt lat="42.89756" lon="-0.39746">
        <ele>1911.238281</ele>
        <time>2011-10-16T10:04:38Z</time>
      </trkpt>
      <trkpt lat="42.89762" lon="-0.39777">
        <ele>1913.641357</ele>
        <time>2011-10-16T10:04:59Z</time>
      </trkpt>
      <trkpt lat="42.8976" lon="-0.39809">
        <ele>1915.564209</ele>
        <time>2011-10-16T10:05:19Z</time>
      </trkpt>
      <trkpt lat="42.8975" lon="-0.39845">
        <ele>1918.448242</ele>
        <time>2011-10-16T10:05:42Z</time>
      </trkpt>
      <trkpt lat="42.89753" lon="-0.39876">
        <ele>1920.851562</ele>
        <time>2011-10-16T10:06:02Z</time>
      </trkpt>
      <trkpt lat="42.89761" lon="-0.39908">
        <ele>1923.254883</ele>
        <time>2011-10-16T10:06:23Z</time>
      </trkpt>
      <trkpt lat="42.89764" lon="-0.39928">
        <ele>1926.138672</ele>
        <time>2011-10-16T10:06:38Z</time>
      </trkpt>
      <trkpt lat="42.89765" lon="-0.39929">
        <ele>1926.138672</ele>
        <time>2011-10-16T10:06:39Z</time>
      </trkpt>
      <trkpt lat="42.89774" lon="-0.39931">
        <ele>1929.022461</ele>
        <time>2011-10-16T10:06:56Z</time>
      </trkpt>
      <trkpt lat="42.89775" lon="-0.39934">
        <ele>1929.022461</ele>
        <time>2011-10-16T10:07:10Z</time>
      </trkpt>
      <trkpt lat="42.89776" lon="-0.39938">
        <ele>1929.022461</ele>
        <time>2011-10-16T10:07:24Z</time>
      </trkpt>
      <trkpt lat="42.8977" lon="-0.39961">
        <ele>1929.022461</ele>
        <time>2011-10-16T10:07:43Z</time>
      </trkpt>
      <trkpt lat="42.89772" lon="-0.39964">
        <ele>1929.503174</ele>
        <time>2011-10-16T10:08:05Z</time>
      </trkpt>
      <trkpt lat="42.89771" lon="-0.39964">
        <ele>1929.022461</ele>
        <time>2011-10-16T10:08:06Z</time>
      </trkpt>
      <trkpt lat="42.89765" lon="-0.39969">
        <ele>1929.022461</ele>
        <time>2011-10-16T10:08:21Z</time>
      </trkpt>
      <trkpt lat="42.89763" lon="-0.39967">
        <ele>1929.503174</ele>
        <time>2011-10-16T10:08:37Z</time>
      </trkpt>
      <trkpt lat="42.8976" lon="-0.39962">
        <ele>1929.022461</ele>
        <time>2011-10-16T10:08:52Z</time>
      </trkpt>
      <trkpt lat="42.89762" lon="-0.39965">
        <ele>1929.022461</ele>
        <time>2011-10-16T10:08:56Z</time>
      </trkpt>
      <trkpt lat="42.89763" lon="-0.39967">
        <ele>1929.022461</ele>
        <time>2011-10-16T10:09:11Z</time>
      </trkpt>
      <trkpt lat="42.89757" lon="-0.39974">
        <ele>1929.022461</ele>
        <time>2011-10-16T10:09:27Z</time>
      </trkpt>
      <trkpt lat="42.89754" lon="-0.39979">
        <ele>1928.061279</ele>
        <time>2011-10-16T10:09:32Z</time>
      </trkpt>
      <trkpt lat="42.89743" lon="-0.40007">
        <ele>1929.022461</ele>
        <time>2011-10-16T10:09:53Z</time>
      </trkpt>
      <trkpt lat="42.8973" lon="-0.40035">
        <ele>1928.541992</ele>
        <time>2011-10-16T10:10:14Z</time>
      </trkpt>
      <trkpt lat="42.89721" lon="-0.40065">
        <ele>1929.022461</ele>
        <time>2011-10-16T10:10:34Z</time>
      </trkpt>
      <trkpt lat="42.89712" lon="-0.40099">
        <ele>1928.061279</ele>
        <time>2011-10-16T10:10:56Z</time>
      </trkpt>
      <trkpt lat="42.89696" lon="-0.40128">
        <ele>1928.061279</ele>
        <time>2011-10-16T10:11:18Z</time>
      </trkpt>
      <trkpt lat="42.89683" lon="-0.40154">
        <ele>1929.503174</ele>
        <time>2011-10-16T10:11:37Z</time>
      </trkpt>
      <trkpt lat="42.89671" lon="-0.40183">
        <ele>1928.061279</ele>
        <time>2011-10-16T10:11:58Z</time>
      </trkpt>
      <trkpt lat="42.8965" lon="-0.40215">
        <ele>1928.541992</ele>
        <time>2011-10-16T10:12:24Z</time>
      </trkpt>
      <trkpt lat="42.89629" lon="-0.40235">
        <ele>1928.541992</ele>
        <time>2011-10-16T10:12:44Z</time>
      </trkpt>
      <trkpt lat="42.89604" lon="-0.40261">
        <ele>1929.022461</ele>
        <time>2011-10-16T10:13:09Z</time>
      </trkpt>
      <trkpt lat="42.89588" lon="-0.40277">
        <ele>1929.022461</ele>
        <time>2011-10-16T10:13:30Z</time>
      </trkpt>
      <trkpt lat="42.89581" lon="-0.40291">
        <ele>1928.541992</ele>
        <time>2011-10-16T10:13:41Z</time>
      </trkpt>
      <trkpt lat="42.89576" lon="-0.40323">
        <ele>1929.022461</ele>
        <time>2011-10-16T10:14:02Z</time>
      </trkpt>
      <trkpt lat="42.89561" lon="-0.40348">
        <ele>1927.580566</ele>
        <time>2011-10-16T10:14:23Z</time>
      </trkpt>
      <trkpt lat="42.89539" lon="-0.40385">
        <ele>1926.138672</ele>
        <time>2011-10-16T10:14:51Z</time>
      </trkpt>
      <trkpt lat="42.89527" lon="-0.40413">
        <ele>1925.177246</ele>
        <time>2011-10-16T10:15:15Z</time>
      </trkpt>
      <trkpt lat="42.89527" lon="-0.4042">
        <ele>1927.580566</ele>
        <time>2011-10-16T10:15:28Z</time>
      </trkpt>
      <trkpt lat="42.89528" lon="-0.40426">
        <ele>1928.061279</ele>
        <time>2011-10-16T10:15:42Z</time>
      </trkpt>
      <trkpt lat="42.89529" lon="-0.40431">
        <ele>1929.022461</ele>
        <time>2011-10-16T10:15:49Z</time>
      </trkpt>
      <trkpt lat="42.8953" lon="-0.40435">
        <ele>1931.425781</ele>
        <time>2011-10-16T10:15:59Z</time>
      </trkpt>
      <trkpt lat="42.89538" lon="-0.40422">
        <ele>1933.829346</ele>
        <time>2011-10-16T10:16:18Z</time>
      </trkpt>
      <trkpt lat="42.8954" lon="-0.40434">
        <ele>1936.713135</ele>
        <time>2011-10-16T10:16:33Z</time>
      </trkpt>
      <trkpt lat="42.89544" lon="-0.40431">
        <ele>1938.155273</ele>
        <time>2011-10-16T10:16:45Z</time>
      </trkpt>
      <trkpt lat="42.8955" lon="-0.40426">
        <ele>1941.039062</ele>
        <time>2011-10-16T10:16:59Z</time>
      </trkpt>
      <trkpt lat="42.89549" lon="-0.40437">
        <ele>1944.403564</ele>
        <time>2011-10-16T10:17:12Z</time>
      </trkpt>
      <trkpt lat="42.89547" lon="-0.40456">
        <ele>1946.806885</ele>
        <time>2011-10-16T10:17:33Z</time>
      </trkpt>
      <trkpt lat="42.89545" lon="-0.40467">
        <ele>1949.691162</ele>
        <time>2011-10-16T10:17:48Z</time>
      </trkpt>
      <trkpt lat="42.89552" lon="-0.40463">
        <ele>1951.61377</ele>
        <time>2011-10-16T10:18:01Z</time>
      </trkpt>
      <trkpt lat="42.89559" lon="-0.40457">
        <ele>1954.01709</ele>
        <time>2011-10-16T10:18:18Z</time>
      </trkpt>
      <trkpt lat="42.89563" lon="-0.40451">
        <ele>1956.420166</ele>
        <time>2011-10-16T10:18:29Z</time>
      </trkpt>
      <trkpt lat="42.89563" lon="-0.40455">
        <ele>1957.862305</ele>
        <time>2011-10-16T10:18:39Z</time>
      </trkpt>
      <trkpt lat="42.89565" lon="-0.40464">
        <ele>1960.746094</ele>
        <time>2011-10-16T10:18:55Z</time>
      </trkpt>
      <trkpt lat="42.89566" lon="-0.40464">
        <ele>1961.226807</ele>
        <time>2011-10-16T10:18:57Z</time>
      </trkpt>
      <trkpt lat="42.8957" lon="-0.40455">
        <ele>1963.149414</ele>
        <time>2011-10-16T10:19:10Z</time>
      </trkpt>
      <trkpt lat="42.89574" lon="-0.40446">
        <ele>1964.591553</ele>
        <time>2011-10-16T10:19:23Z</time>
      </trkpt>
      <trkpt lat="42.89579" lon="-0.40442">
        <ele>1966.51416</ele>
        <time>2011-10-16T10:19:38Z</time>
      </trkpt>
      <trkpt lat="42.89585" lon="-0.40434">
        <ele>1968.91748</ele>
        <time>2011-10-16T10:19:51Z</time>
      </trkpt>
      <trkpt lat="42.8959" lon="-0.40428">
        <ele>1971.320557</ele>
        <time>2011-10-16T10:20:08Z</time>
      </trkpt>
      <trkpt lat="42.89591" lon="-0.40437">
        <ele>1974.685303</ele>
        <time>2011-10-16T10:20:23Z</time>
      </trkpt>
      <trkpt lat="42.89591" lon="-0.40445">
        <ele>1975.646484</ele>
        <time>2011-10-16T10:20:37Z</time>
      </trkpt>
      <trkpt lat="42.89596" lon="-0.40437">
        <ele>1977.088623</ele>
        <time>2011-10-16T10:20:50Z</time>
      </trkpt>
      <trkpt lat="42.89598" lon="-0.40437">
        <ele>1979.972412</ele>
        <time>2011-10-16T10:21:06Z</time>
      </trkpt>
      <trkpt lat="42.896" lon="-0.40445">
        <ele>1982.375977</ele>
        <time>2011-10-16T10:21:19Z</time>
      </trkpt>
      <trkpt lat="42.89595" lon="-0.40455">
        <ele>1985.740479</ele>
        <time>2011-10-16T10:21:36Z</time>
      </trkpt>
      <trkpt lat="42.89592" lon="-0.40464">
        <ele>1987.663086</ele>
        <time>2011-10-16T10:21:50Z</time>
      </trkpt>
      <trkpt lat="42.89594" lon="-0.40468">
        <ele>1988.624512</ele>
        <time>2011-10-16T10:22:05Z</time>
      </trkpt>
      <trkpt lat="42.89596" lon="-0.40467">
        <ele>1991.027588</ele>
        <time>2011-10-16T10:22:14Z</time>
      </trkpt>
      <trkpt lat="42.89603" lon="-0.40462">
        <ele>1992.950195</ele>
        <time>2011-10-16T10:22:30Z</time>
      </trkpt>
      <trkpt lat="42.89607" lon="-0.40458">
        <ele>1994.872803</ele>
        <time>2011-10-16T10:22:42Z</time>
      </trkpt>
      <trkpt lat="42.89609" lon="-0.40464">
        <ele>1995.834229</ele>
        <time>2011-10-16T10:22:55Z</time>
      </trkpt>
      <trkpt lat="42.89608" lon="-0.40468">
        <ele>1996.315186</ele>
        <time>2011-10-16T10:23:15Z</time>
      </trkpt>
      <trkpt lat="42.89614" lon="-0.40462">
        <ele>1998.718262</ele>
        <time>2011-10-16T10:23:30Z</time>
      </trkpt>
      <trkpt lat="42.89618" lon="-0.40461">
        <ele>2001.121582</ele>
        <time>2011-10-16T10:23:41Z</time>
      </trkpt>
      <trkpt lat="42.89619" lon="-0.40464">
        <ele>2002.563477</ele>
        <time>2011-10-16T10:23:58Z</time>
      </trkpt>
      <trkpt lat="42.89611" lon="-0.40476">
        <ele>2003.524902</ele>
        <time>2011-10-16T10:24:16Z</time>
      </trkpt>
      <trkpt lat="42.89604" lon="-0.40491">
        <ele>2004.966797</ele>
        <time>2011-10-16T10:24:35Z</time>
      </trkpt>
      <trkpt lat="42.89602" lon="-0.40494">
        <ele>2005.44751</ele>
        <time>2011-10-16T10:24:39Z</time>
      </trkpt>
      <trkpt lat="42.89591" lon="-0.40514">
        <ele>2004.005615</ele>
        <time>2011-10-16T10:24:59Z</time>
      </trkpt>
      <trkpt lat="42.89579" lon="-0.4053">
        <ele>2005.927979</ele>
        <time>2011-10-16T10:25:18Z</time>
      </trkpt>
      <trkpt lat="42.89572" lon="-0.40539">
        <ele>2006.889404</ele>
        <time>2011-10-16T10:25:28Z</time>
      </trkpt>
      <trkpt lat="42.89563" lon="-0.40546">
        <ele>2010.253906</ele>
        <time>2011-10-16T10:25:42Z</time>
      </trkpt>
      <trkpt lat="42.89563" lon="-0.40547">
        <ele>2009.773193</ele>
        <time>2011-10-16T10:25:43Z</time>
      </trkpt>
      <trkpt lat="42.89562" lon="-0.40548">
        <ele>2011.696045</ele>
        <time>2011-10-16T10:25:47Z</time>
      </trkpt>
      <trkpt lat="42.89561" lon="-0.40547">
        <ele>2010.253906</ele>
        <time>2011-10-16T10:26:15Z</time>
      </trkpt>
      <trkpt lat="42.89567" lon="-0.40546">
        <ele>2013.138184</ele>
        <time>2011-10-16T10:26:45Z</time>
      </trkpt>
      <trkpt lat="42.89573" lon="-0.40548">
        <ele>2016.502686</ele>
        <time>2011-10-16T10:27:02Z</time>
      </trkpt>
      <trkpt lat="42.89576" lon="-0.40551">
        <ele>2018.906006</ele>
        <time>2011-10-16T10:27:17Z</time>
      </trkpt>
      <trkpt lat="42.89585" lon="-0.40545">
        <ele>2021.789795</ele>
        <time>2011-10-16T10:27:35Z</time>
      </trkpt>
      <trkpt lat="42.8959" lon="-0.4055">
        <ele>2024.673828</ele>
        <time>2011-10-16T10:27:53Z</time>
      </trkpt>
      <trkpt lat="42.89592" lon="-0.40547">
        <ele>2024.673828</ele>
        <time>2011-10-16T10:28:12Z</time>
      </trkpt>
      <trkpt lat="42.89593" lon="-0.40545">
        <ele>2024.673828</ele>
        <time>2011-10-16T10:28:29Z</time>
      </trkpt>
      <trkpt lat="42.89593" lon="-0.40542">
        <ele>2028.038574</ele>
        <time>2011-10-16T10:31:39Z</time>
      </trkpt>
      <trkpt lat="42.89593" lon="-0.40545">
        <ele>2028.038574</ele>
        <time>2011-10-16T10:38:28Z</time>
      </trkpt>
      <trkpt lat="42.89591" lon="-0.40544">
        <ele>2028.038574</ele>
        <time>2011-10-16T10:39:46Z</time>
      </trkpt>
      <trkpt lat="42.8959" lon="-0.40544">
        <ele>2028.038574</ele>
        <time>2011-10-16T10:47:54Z</time>
      </trkpt>
      <trkpt lat="42.8959" lon="-0.40544">
        <ele>2028.519287</ele>
        <time>2011-10-16T10:48:26Z</time>
      </trkpt>
      <trkpt lat="42.8959" lon="-0.40543">
        <ele>2029.961182</ele>
        <time>2011-10-16T10:51:12Z</time>
      </trkpt>
      <trkpt lat="42.89589" lon="-0.40544">
        <ele>2029.480469</ele>
        <time>2011-10-16T10:52:32Z</time>
      </trkpt>
      <trkpt lat="42.89593" lon="-0.40543">
        <ele>2029.961182</ele>
        <time>2011-10-16T10:54:46Z</time>
      </trkpt>
      <trkpt lat="42.89592" lon="-0.40543">
        <ele>2029.480469</ele>
        <time>2011-10-16T10:55:25Z</time>
      </trkpt>
      <trkpt lat="42.89591" lon="-0.40544">
        <ele>2030.441895</ele>
        <time>2011-10-16T10:56:18Z</time>
      </trkpt>
      <trkpt lat="42.8959" lon="-0.40544">
        <ele>2031.883789</ele>
        <time>2011-10-16T10:57:12Z</time>
      </trkpt>
      <trkpt lat="42.8959" lon="-0.40545">
        <ele>2029.961182</ele>
        <time>2011-10-16T10:57:50Z</time>
      </trkpt>
      <trkpt lat="42.89592" lon="-0.40544">
        <ele>2029.961182</ele>
        <time>2011-10-16T10:58:32Z</time>
      </trkpt>
      <trkpt lat="42.89591" lon="-0.40545">
        <ele>2030.922607</ele>
        <time>2011-10-16T10:59:19Z</time>
      </trkpt>
      <trkpt lat="42.89589" lon="-0.40545">
        <ele>2030.441895</ele>
        <time>2011-10-16T10:59:42Z</time>
      </trkpt>
      <trkpt lat="42.89589" lon="-0.40545">
        <ele>2030.441895</ele>
        <time>2011-10-16T11:00:00Z</time>
      </trkpt>
      <trkpt lat="42.89589" lon="-0.40545">
        <ele>2030.441895</ele>
        <time>2011-10-16T11:00:20Z</time>
      </trkpt>
      <trkpt lat="42.89588" lon="-0.40545">
        <ele>2029.961182</ele>
        <time>2011-10-16T11:00:42Z</time>
      </trkpt>
      <trkpt lat="42.89589" lon="-0.40545">
        <ele>2029.961182</ele>
        <time>2011-10-16T11:01:01Z</time>
      </trkpt>
      <trkpt lat="42.89588" lon="-0.40545">
        <ele>2029.961182</ele>
        <time>2011-10-16T11:01:31Z</time>
      </trkpt>
      <trkpt lat="42.89588" lon="-0.40545">
        <ele>2029.961182</ele>
        <time>2011-10-16T11:01:51Z</time>
      </trkpt>
      <trkpt lat="42.89588" lon="-0.40545">
        <ele>2029.480469</ele>
        <time>2011-10-16T11:02:09Z</time>
      </trkpt>
      <trkpt lat="42.89588" lon="-0.40545">
        <ele>2030.441895</ele>
        <time>2011-10-16T11:02:25Z</time>
      </trkpt>
      <trkpt lat="42.89589" lon="-0.40545">
        <ele>2030.441895</ele>
        <time>2011-10-16T11:02:46Z</time>
      </trkpt>
      <trkpt lat="42.89588" lon="-0.40545">
        <ele>2029.961182</ele>
        <time>2011-10-16T11:03:12Z</time>
      </trkpt>
      <trkpt lat="42.8959" lon="-0.40545">
        <ele>2029.961182</ele>
        <time>2011-10-16T11:03:26Z</time>
      </trkpt>
      <trkpt lat="42.8959" lon="-0.40545">
        <ele>2030.441895</ele>
        <time>2011-10-16T11:04:00Z</time>
      </trkpt>
      <trkpt lat="42.8959" lon="-0.40545">
        <ele>2030.922607</ele>
        <time>2011-10-16T11:04:51Z</time>
      </trkpt>
      <trkpt lat="42.89589" lon="-0.40545">
        <ele>2029.480469</ele>
        <time>2011-10-16T11:05:10Z</time>
      </trkpt>
      <trkpt lat="42.89589" lon="-0.40545">
        <ele>2030.441895</ele>
        <time>2011-10-16T11:05:41Z</time>
      </trkpt>
      <trkpt lat="42.89589" lon="-0.40545">
        <ele>2030.922607</ele>
        <time>2011-10-16T11:06:24Z</time>
      </trkpt>
      <trkpt lat="42.89589" lon="-0.40545">
        <ele>2031.403076</ele>
        <time>2011-10-16T11:06:54Z</time>
      </trkpt>
      <trkpt lat="42.89589" lon="-0.40545">
        <ele>2030.922607</ele>
        <time>2011-10-16T11:07:58Z</time>
      </trkpt>
      <trkpt lat="42.8959" lon="-0.40545">
        <ele>2030.922607</ele>
        <time>2011-10-16T11:09:17Z</time>
      </trkpt>
      <trkpt lat="42.8959" lon="-0.40545">
        <ele>2027.557617</ele>
        <time>2011-10-16T11:09:29Z</time>
      </trkpt>
      <trkpt lat="42.8959" lon="-0.40545">
        <ele>2030.922607</ele>
        <time>2011-10-16T11:09:30Z</time>
      </trkpt>
      <trkpt lat="42.8959" lon="-0.40545">
        <ele>2030.922607</ele>
        <time>2011-10-16T11:10:03Z</time>
      </trkpt>
      <trkpt lat="42.8959" lon="-0.40545">
        <ele>2031.403076</ele>
        <time>2011-10-16T11:10:28Z</time>
      </trkpt>
      <trkpt lat="42.89589" lon="-0.40545">
        <ele>2031.883789</ele>
        <time>2011-10-16T11:12:19Z</time>
      </trkpt>
      <trkpt lat="42.89591" lon="-0.40545">
        <ele>2031.883789</ele>
        <time>2011-10-16T11:13:05Z</time>
      </trkpt>
      <trkpt lat="42.89591" lon="-0.40545">
        <ele>2032.364502</ele>
        <time>2011-10-16T11:14:00Z</time>
      </trkpt>
      <trkpt lat="42.89591" lon="-0.40545">
        <ele>2032.844971</ele>
        <time>2011-10-16T11:14:01Z</time>
      </trkpt>
      <trkpt lat="42.89592" lon="-0.40544">
        <ele>2034.287109</ele>
        <time>2011-10-16T11:15:43Z</time>
      </trkpt>
      <trkpt lat="42.89592" lon="-0.40544">
        <ele>2033.806396</ele>
        <time>2011-10-16T11:16:29Z</time>
      </trkpt>
      <trkpt lat="42.89591" lon="-0.40544">
        <ele>2033.325684</ele>
        <time>2011-10-16T11:17:54Z</time>
      </trkpt>
      <trkpt lat="42.89591" lon="-0.40544">
        <ele>2033.806396</ele>
        <time>2011-10-16T11:18:21Z</time>
      </trkpt>
      <trkpt lat="42.89591" lon="-0.40545">
        <ele>2033.325684</ele>
        <time>2011-10-16T11:18:54Z</time>
      </trkpt>
      <trkpt lat="42.89591" lon="-0.40545">
        <ele>2033.325684</ele>
        <time>2011-10-16T11:19:39Z</time>
      </trkpt>
      <trkpt lat="42.89591" lon="-0.40545">
        <ele>2034.287109</ele>
        <time>2011-10-16T11:20:40Z</time>
      </trkpt>
      <trkpt lat="42.8959" lon="-0.40546">
        <ele>2033.325684</ele>
        <time>2011-10-16T11:23:55Z</time>
      </trkpt>
      <trkpt lat="42.8959" lon="-0.40547">
        <ele>2034.767822</ele>
        <time>2011-10-16T11:24:47Z</time>
      </trkpt>
      <trkpt lat="42.8959" lon="-0.40548">
        <ele>2034.767822</ele>
        <time>2011-10-16T11:27:42Z</time>
      </trkpt>
      <trkpt lat="42.8959" lon="-0.40549">
        <ele>2033.806396</ele>
        <time>2011-10-16T11:28:19Z</time>
      </trkpt>
      <trkpt lat="42.8959" lon="-0.4055">
        <ele>2034.767822</ele>
        <time>2011-10-16T11:28:54Z</time>
      </trkpt>
      <trkpt lat="42.8959" lon="-0.40547">
        <ele>2036.209717</ele>
        <time>2011-10-16T11:32:20Z</time>
      </trkpt>
      <trkpt lat="42.89592" lon="-0.40545">
        <ele>2034.767822</ele>
        <time>2011-10-16T11:36:16Z</time>
      </trkpt>
      <trkpt lat="42.89593" lon="-0.40546">
        <ele>2035.729004</ele>
        <time>2011-10-16T11:38:34Z</time>
      </trkpt>
      <trkpt lat="42.89591" lon="-0.40546">
        <ele>2035.248291</ele>
        <time>2011-10-16T11:39:16Z</time>
      </trkpt>
      <trkpt lat="42.89589" lon="-0.40546">
        <ele>2036.690186</ele>
        <time>2011-10-16T11:41:19Z</time>
      </trkpt>
      <trkpt lat="42.89592" lon="-0.40545">
        <ele>2033.325684</ele>
        <time>2011-10-16T11:43:08Z</time>
      </trkpt>
      <trkpt lat="42.89592" lon="-0.40545">
        <ele>2038.132324</ele>
        <time>2011-10-16T11:43:09Z</time>
      </trkpt>
      <trkpt lat="42.89592" lon="-0.40545">
        <ele>2037.651611</ele>
        <time>2011-10-16T11:43:10Z</time>
      </trkpt>
      <trkpt lat="42.89592" lon="-0.40545">
        <ele>2035.729004</ele>
        <time>2011-10-16T11:43:23Z</time>
      </trkpt>
      <trkpt lat="42.89593" lon="-0.40544">
        <ele>2036.690186</ele>
        <time>2011-10-16T11:43:38Z</time>
      </trkpt>
      <trkpt lat="42.89593" lon="-0.40544">
        <ele>2035.729004</ele>
        <time>2011-10-16T11:43:40Z</time>
      </trkpt>
      <trkpt lat="42.89592" lon="-0.40546">
        <ele>2036.209717</ele>
        <time>2011-10-16T11:45:02Z</time>
      </trkpt>
      <trkpt lat="42.89591" lon="-0.40545">
        <ele>2037.170898</ele>
        <time>2011-10-16T11:45:30Z</time>
      </trkpt>
      <trkpt lat="42.89591" lon="-0.40545">
        <ele>2037.170898</ele>
        <time>2011-10-16T11:45:56Z</time>
      </trkpt>
      <trkpt lat="42.8959" lon="-0.40545">
        <ele>2035.729004</ele>
        <time>2011-10-16T11:46:29Z</time>
      </trkpt>
      <trkpt lat="42.89589" lon="-0.40546">
        <ele>2036.209717</ele>
        <time>2011-10-16T11:47:04Z</time>
      </trkpt>
      <trkpt lat="42.89587" lon="-0.40549">
        <ele>2036.209717</ele>
        <time>2011-10-16T11:47:23Z</time>
      </trkpt>
      <trkpt lat="42.89587" lon="-0.40545">
        <ele>2036.690186</ele>
        <time>2011-10-16T11:47:43Z</time>
      </trkpt>
      <trkpt lat="42.89583" lon="-0.40545">
        <ele>2034.287109</ele>
        <time>2011-10-16T11:48:02Z</time>
      </trkpt>
      <trkpt lat="42.8958" lon="-0.40547">
        <ele>2032.844971</ele>
        <time>2011-10-16T11:48:18Z</time>
      </trkpt>
      <trkpt lat="42.89575" lon="-0.4055">
        <ele>2028.999756</ele>
        <time>2011-10-16T11:48:31Z</time>
      </trkpt>
      <trkpt lat="42.89572" lon="-0.4055">
        <ele>2030.441895</ele>
        <time>2011-10-16T11:48:49Z</time>
      </trkpt>
      <trkpt lat="42.89573" lon="-0.40548">
        <ele>2028.999756</ele>
        <time>2011-10-16T11:48:56Z</time>
      </trkpt>
      <trkpt lat="42.89573" lon="-0.40544">
        <ele>2026.596436</ele>
        <time>2011-10-16T11:49:13Z</time>
      </trkpt>
      <trkpt lat="42.89565" lon="-0.40546">
        <ele>2026.115723</ele>
        <time>2011-10-16T11:49:30Z</time>
      </trkpt>
      <trkpt lat="42.8956" lon="-0.40546">
        <ele>2022.751221</ele>
        <time>2011-10-16T11:49:44Z</time>
      </trkpt>
      <trkpt lat="42.89569" lon="-0.40537">
        <ele>2020.828613</ele>
        <time>2011-10-16T11:50:03Z</time>
      </trkpt>
      <trkpt lat="42.89574" lon="-0.4053">
        <ele>2018.906006</ele>
        <time>2011-10-16T11:50:19Z</time>
      </trkpt>
      <trkpt lat="42.89581" lon="-0.40518">
        <ele>2017.94458</ele>
        <time>2011-10-16T11:50:38Z</time>
      </trkpt>
      <trkpt lat="42.89587" lon="-0.40514">
        <ele>2016.983398</ele>
        <time>2011-10-16T11:50:45Z</time>
      </trkpt>
      <trkpt lat="42.89597" lon="-0.40504">
        <ele>2016.983398</ele>
        <time>2011-10-16T11:51:04Z</time>
      </trkpt>
      <trkpt lat="42.89604" lon="-0.40488">
        <ele>2018.425293</ele>
        <time>2011-10-16T11:51:22Z</time>
      </trkpt>
      <trkpt lat="42.8961" lon="-0.40477">
        <ele>2016.021973</ele>
        <time>2011-10-16T11:51:40Z</time>
      </trkpt>
      <trkpt lat="42.89616" lon="-0.40464">
        <ele>2015.060791</ele>
        <time>2011-10-16T11:51:59Z</time>
      </trkpt>
      <trkpt lat="42.89616" lon="-0.4046">
        <ele>2015.060791</ele>
        <time>2011-10-16T11:52:19Z</time>
      </trkpt>
      <trkpt lat="42.89617" lon="-0.40455">
        <ele>2012.657471</ele>
        <time>2011-10-16T11:52:40Z</time>
      </trkpt>
      <trkpt lat="42.89611" lon="-0.40458">
        <ele>2011.215332</ele>
        <time>2011-10-16T11:52:58Z</time>
      </trkpt>
      <trkpt lat="42.89607" lon="-0.40461">
        <ele>2009.773193</ele>
        <time>2011-10-16T11:53:17Z</time>
      </trkpt>
      <trkpt lat="42.89605" lon="-0.40455">
        <ele>2007.370117</ele>
        <time>2011-10-16T11:53:32Z</time>
      </trkpt>
      <trkpt lat="42.89596" lon="-0.40461">
        <ele>2004.486084</ele>
        <time>2011-10-16T11:53:50Z</time>
      </trkpt>
      <trkpt lat="42.89591" lon="-0.40465">
        <ele>2003.044189</ele>
        <time>2011-10-16T11:54:07Z</time>
      </trkpt>
      <trkpt lat="42.89589" lon="-0.40465">
        <ele>1999.679688</ele>
        <time>2011-10-16T11:54:24Z</time>
      </trkpt>
      <trkpt lat="42.8959" lon="-0.40454">
        <ele>1997.75708</ele>
        <time>2011-10-16T11:54:40Z</time>
      </trkpt>
      <trkpt lat="42.89595" lon="-0.40446">
        <ele>1996.795654</ele>
        <time>2011-10-16T11:54:55Z</time>
      </trkpt>
      <trkpt lat="42.89596" lon="-0.40438">
        <ele>1993.430908</ele>
        <time>2011-10-16T11:55:10Z</time>
      </trkpt>
      <trkpt lat="42.89594" lon="-0.4043">
        <ele>1991.027588</ele>
        <time>2011-10-16T11:55:27Z</time>
      </trkpt>
      <trkpt lat="42.89587" lon="-0.4044">
        <ele>1988.624512</ele>
        <time>2011-10-16T11:55:46Z</time>
      </trkpt>
      <trkpt lat="42.89588" lon="-0.40433">
        <ele>1986.70166</ele>
        <time>2011-10-16T11:56:01Z</time>
      </trkpt>
      <trkpt lat="42.89587" lon="-0.40425">
        <ele>1985.259766</ele>
        <time>2011-10-16T11:56:18Z</time>
      </trkpt>
      <trkpt lat="42.89583" lon="-0.40427">
        <ele>1983.337158</ele>
        <time>2011-10-16T11:56:30Z</time>
      </trkpt>
      <trkpt lat="42.89577" lon="-0.40434">
        <ele>1979.972412</ele>
        <time>2011-10-16T11:56:47Z</time>
      </trkpt>
      <trkpt lat="42.89571" lon="-0.40441">
        <ele>1978.530518</ele>
        <time>2011-10-16T11:57:05Z</time>
      </trkpt>
      <trkpt lat="42.89567" lon="-0.40448">
        <ele>1975.165771</ele>
        <time>2011-10-16T11:57:17Z</time>
      </trkpt>
      <trkpt lat="42.89563" lon="-0.40456">
        <ele>1973.243408</ele>
        <time>2011-10-16T11:57:32Z</time>
      </trkpt>
      <trkpt lat="42.8956" lon="-0.4046">
        <ele>1971.80127</ele>
        <time>2011-10-16T11:57:47Z</time>
      </trkpt>
      <trkpt lat="42.8956" lon="-0.40452">
        <ele>1970.840088</ele>
        <time>2011-10-16T11:57:59Z</time>
      </trkpt>
      <trkpt lat="42.89557" lon="-0.40451">
        <ele>1967.475342</ele>
        <time>2011-10-16T11:58:14Z</time>
      </trkpt>
      <trkpt lat="42.89549" lon="-0.40458">
        <ele>1964.11084</ele>
        <time>2011-10-16T11:58:32Z</time>
      </trkpt>
      <trkpt lat="42.89542" lon="-0.40463">
        <ele>1961.70752</ele>
        <time>2011-10-16T11:58:51Z</time>
      </trkpt>
      <trkpt lat="42.89544" lon="-0.40452">
        <ele>1958.823486</ele>
        <time>2011-10-16T11:59:05Z</time>
      </trkpt>
      <trkpt lat="42.89547" lon="-0.40432">
        <ele>1955.939453</ele>
        <time>2011-10-16T11:59:25Z</time>
      </trkpt>
      <trkpt lat="42.89544" lon="-0.40427">
        <ele>1952.574951</ele>
        <time>2011-10-16T11:59:42Z</time>
      </trkpt>
      <trkpt lat="42.89537" lon="-0.40429">
        <ele>1950.171875</ele>
        <time>2011-10-16T12:00:02Z</time>
      </trkpt>
      <trkpt lat="42.89537" lon="-0.40423">
        <ele>1947.768311</ele>
        <time>2011-10-16T12:00:08Z</time>
      </trkpt>
      <trkpt lat="42.89534" lon="-0.40423">
        <ele>1946.326416</ele>
        <time>2011-10-16T12:00:14Z</time>
      </trkpt>
      <trkpt lat="42.89528" lon="-0.40431">
        <ele>1943.923096</ele>
        <time>2011-10-16T12:00:25Z</time>
      </trkpt>
      <trkpt lat="42.89526" lon="-0.40429">
        <ele>1942.96167</ele>
        <time>2011-10-16T12:00:39Z</time>
      </trkpt>
      <trkpt lat="42.89525" lon="-0.40421">
        <ele>1940.077881</ele>
        <time>2011-10-16T12:00:55Z</time>
      </trkpt>
      <trkpt lat="42.89524" lon="-0.40419">
        <ele>1938.635986</ele>
        <time>2011-10-16T12:00:59Z</time>
      </trkpt>
      <trkpt lat="42.89524" lon="-0.40411">
        <ele>1938.155273</ele>
        <time>2011-10-16T12:01:08Z</time>
      </trkpt>
      <trkpt lat="42.89529" lon="-0.404">
        <ele>1938.155273</ele>
        <time>2011-10-16T12:01:20Z</time>
      </trkpt>
      <trkpt lat="42.89539" lon="-0.40379">
        <ele>1938.635986</ele>
        <time>2011-10-16T12:01:39Z</time>
      </trkpt>
      <trkpt lat="42.89551" lon="-0.40356">
        <ele>1940.077881</ele>
        <time>2011-10-16T12:02:00Z</time>
      </trkpt>
      <trkpt lat="42.89561" lon="-0.40346">
        <ele>1940.55835</ele>
        <time>2011-10-16T12:02:16Z</time>
      </trkpt>
      <trkpt lat="42.89576" lon="-0.40319">
        <ele>1942.481201</ele>
        <time>2011-10-16T12:02:39Z</time>
      </trkpt>
      <trkpt lat="42.89581" lon="-0.40285">
        <ele>1942.000488</ele>
        <time>2011-10-16T12:03:01Z</time>
      </trkpt>
      <trkpt lat="42.89595" lon="-0.40264">
        <ele>1941.519775</ele>
        <time>2011-10-16T12:03:21Z</time>
      </trkpt>
      <trkpt lat="42.89605" lon="-0.40254">
        <ele>1942.000488</ele>
        <time>2011-10-16T12:03:37Z</time>
      </trkpt>
      <trkpt lat="42.89612" lon="-0.40249">
        <ele>1942.96167</ele>
        <time>2011-10-16T12:03:52Z</time>
      </trkpt>
      <trkpt lat="42.89624" lon="-0.40236">
        <ele>1942.481201</ele>
        <time>2011-10-16T12:04:09Z</time>
      </trkpt>
      <trkpt lat="42.89638" lon="-0.40223">
        <ele>1943.442383</ele>
        <time>2011-10-16T12:04:25Z</time>
      </trkpt>
      <trkpt lat="42.89655" lon="-0.40196">
        <ele>1942.481201</ele>
        <time>2011-10-16T12:04:47Z</time>
      </trkpt>
      <trkpt lat="42.89673" lon="-0.40169">
        <ele>1942.481201</ele>
        <time>2011-10-16T12:05:09Z</time>
      </trkpt>
      <trkpt lat="42.89688" lon="-0.40133">
        <ele>1944.403564</ele>
        <time>2011-10-16T12:05:35Z</time>
      </trkpt>
      <trkpt lat="42.8969" lon="-0.40128">
        <ele>1943.923096</ele>
        <time>2011-10-16T12:05:39Z</time>
      </trkpt>
      <trkpt lat="42.89694" lon="-0.40123">
        <ele>1942.481201</ele>
        <time>2011-10-16T12:05:43Z</time>
      </trkpt>
      <trkpt lat="42.89709" lon="-0.40094">
        <ele>1942.481201</ele>
        <time>2011-10-16T12:06:05Z</time>
      </trkpt>
      <trkpt lat="42.89719" lon="-0.40059">
        <ele>1943.923096</ele>
        <time>2011-10-16T12:06:28Z</time>
      </trkpt>
      <trkpt lat="42.89726" lon="-0.40031">
        <ele>1943.923096</ele>
        <time>2011-10-16T12:06:47Z</time>
      </trkpt>
      <trkpt lat="42.89739" lon="-0.40009">
        <ele>1943.442383</ele>
        <time>2011-10-16T12:07:04Z</time>
      </trkpt>
      <trkpt lat="42.8975" lon="-0.39976">
        <ele>1942.96167</ele>
        <time>2011-10-16T12:07:27Z</time>
      </trkpt>
      <trkpt lat="42.89762" lon="-0.39952">
        <ele>1942.96167</ele>
        <time>2011-10-16T12:07:46Z</time>
      </trkpt>
      <trkpt lat="42.89766" lon="-0.39944">
        <ele>1942.96167</ele>
        <time>2011-10-16T12:07:53Z</time>
      </trkpt>
      <trkpt lat="42.89766" lon="-0.39937">
        <ele>1943.442383</ele>
        <time>2011-10-16T12:07:58Z</time>
      </trkpt>
      <trkpt lat="42.89761" lon="-0.39923">
        <ele>1939.597168</ele>
        <time>2011-10-16T12:08:11Z</time>
      </trkpt>
      <trkpt lat="42.89761" lon="-0.39922">
        <ele>1939.597168</ele>
        <time>2011-10-16T12:08:12Z</time>
      </trkpt>
      <trkpt lat="42.8976" lon="-0.3991">
        <ele>1938.155273</ele>
        <time>2011-10-16T12:08:21Z</time>
      </trkpt>
      <trkpt lat="42.89756" lon="-0.39886">
        <ele>1934.790771</ele>
        <time>2011-10-16T12:08:38Z</time>
      </trkpt>
      <trkpt lat="42.89749" lon="-0.39854">
        <ele>1933.348633</ele>
        <time>2011-10-16T12:09:00Z</time>
      </trkpt>
      <trkpt lat="42.89752" lon="-0.39833">
        <ele>1929.983887</ele>
        <time>2011-10-16T12:09:15Z</time>
      </trkpt>
      <trkpt lat="42.89754" lon="-0.39824">
        <ele>1929.503174</ele>
        <time>2011-10-16T12:09:21Z</time>
      </trkpt>
      <trkpt lat="42.89761" lon="-0.39787">
        <ele>1927.100098</ele>
        <time>2011-10-16T12:09:45Z</time>
      </trkpt>
      <trkpt lat="42.89758" lon="-0.3977">
        <ele>1925.177246</ele>
        <time>2011-10-16T12:09:56Z</time>
      </trkpt>
      <trkpt lat="42.89748" lon="-0.39734">
        <ele>1923.735352</ele>
        <time>2011-10-16T12:10:20Z</time>
      </trkpt>
      <trkpt lat="42.89746" lon="-0.39726">
        <ele>1922.77417</ele>
        <time>2011-10-16T12:10:34Z</time>
      </trkpt>
      <trkpt lat="42.89735" lon="-0.39697">
        <ele>1920.37085</ele>
        <time>2011-10-16T12:10:56Z</time>
      </trkpt>
      <trkpt lat="42.89726" lon="-0.39687">
        <ele>1917.006348</ele>
        <time>2011-10-16T12:11:06Z</time>
      </trkpt>
      <trkpt lat="42.89725" lon="-0.39686">
        <ele>1917.967529</ele>
        <time>2011-10-16T12:11:07Z</time>
      </trkpt>
      <trkpt lat="42.89716" lon="-0.39661">
        <ele>1916.525635</ele>
        <time>2011-10-16T12:11:26Z</time>
      </trkpt>
      <trkpt lat="42.89709" lon="-0.39642">
        <ele>1913.160889</ele>
        <time>2011-10-16T12:11:41Z</time>
      </trkpt>
      <trkpt lat="42.89696" lon="-0.39649">
        <ele>1910.757568</ele>
        <time>2011-10-16T12:11:56Z</time>
      </trkpt>
      <trkpt lat="42.89693" lon="-0.39667">
        <ele>1906.912354</ele>
        <time>2011-10-16T12:12:09Z</time>
      </trkpt>
      <trkpt lat="42.89692" lon="-0.39684">
        <ele>1905.470459</ele>
        <time>2011-10-16T12:12:20Z</time>
      </trkpt>
      <trkpt lat="42.8969" lon="-0.39717">
        <ele>1903.547852</ele>
        <time>2011-10-16T12:12:42Z</time>
      </trkpt>
      <trkpt lat="42.89685" lon="-0.39741">
        <ele>1900.18335</ele>
        <time>2011-10-16T12:12:59Z</time>
      </trkpt>
      <trkpt lat="42.8968" lon="-0.3977">
        <ele>1899.22168</ele>
        <time>2011-10-16T12:13:20Z</time>
      </trkpt>
      <trkpt lat="42.89665" lon="-0.39796">
        <ele>1896.337891</ele>
        <time>2011-10-16T12:13:41Z</time>
      </trkpt>
      <trkpt lat="42.89659" lon="-0.39824">
        <ele>1893.93457</ele>
        <time>2011-10-16T12:14:00Z</time>
      </trkpt>
      <trkpt lat="42.89648" lon="-0.39844">
        <ele>1890.569824</ele>
        <time>2011-10-16T12:14:19Z</time>
      </trkpt>
      <trkpt lat="42.89642" lon="-0.39845">
        <ele>1889.12793</ele>
        <time>2011-10-16T12:14:38Z</time>
      </trkpt>
      <trkpt lat="42.89629" lon="-0.39851">
        <ele>1887.205322</ele>
        <time>2011-10-16T12:14:53Z</time>
      </trkpt>
      <trkpt lat="42.89623" lon="-0.39859">
        <ele>1886.244141</ele>
        <time>2011-10-16T12:15:02Z</time>
      </trkpt>
      <trkpt lat="42.8962" lon="-0.39864">
        <ele>1885.763428</ele>
        <time>2011-10-16T12:15:06Z</time>
      </trkpt>
      <trkpt lat="42.89616" lon="-0.39891">
        <ele>1882.398682</ele>
        <time>2011-10-16T12:15:26Z</time>
      </trkpt>
      <trkpt lat="42.89613" lon="-0.39921">
        <ele>1879.033936</ele>
        <time>2011-10-16T12:15:46Z</time>
      </trkpt>
      <trkpt lat="42.89609" lon="-0.39953">
        <ele>1878.072754</ele>
        <time>2011-10-16T12:16:07Z</time>
      </trkpt>
      <trkpt lat="42.89616" lon="-0.3998">
        <ele>1875.188721</ele>
        <time>2011-10-16T12:16:26Z</time>
      </trkpt>
      <trkpt lat="42.89617" lon="-0.40001">
        <ele>1872.785645</ele>
        <time>2011-10-16T12:16:44Z</time>
      </trkpt>
      <trkpt lat="42.896" lon="-0.40028">
        <ele>1870.382324</ele>
        <time>2011-10-16T12:17:07Z</time>
      </trkpt>
      <trkpt lat="42.89584" lon="-0.40036">
        <ele>1868.459717</ele>
        <time>2011-10-16T12:17:28Z</time>
      </trkpt>
      <trkpt lat="42.89584" lon="-0.40035">
        <ele>1868.459717</ele>
        <time>2011-10-16T12:17:29Z</time>
      </trkpt>
      <trkpt lat="42.896" lon="-0.40007">
        <ele>1866.056152</ele>
        <time>2011-10-16T12:17:52Z</time>
      </trkpt>
      <trkpt lat="42.8959" lon="-0.39983">
        <ele>1864.133545</ele>
        <time>2011-10-16T12:18:11Z</time>
      </trkpt>
      <trkpt lat="42.89576" lon="-0.39971">
        <ele>1861.730469</ele>
        <time>2011-10-16T12:18:25Z</time>
      </trkpt>
      <trkpt lat="42.89565" lon="-0.39957">
        <ele>1857.885254</ele>
        <time>2011-10-16T12:18:39Z</time>
      </trkpt>
      <trkpt lat="42.89551" lon="-0.39929">
        <ele>1855.481934</ele>
        <time>2011-10-16T12:19:03Z</time>
      </trkpt>
      <trkpt lat="42.89551" lon="-0.3991">
        <ele>1852.117188</ele>
        <time>2011-10-16T12:19:17Z</time>
      </trkpt>
      <trkpt lat="42.89552" lon="-0.39883">
        <ele>1849.713867</ele>
        <time>2011-10-16T12:19:37Z</time>
      </trkpt>
      <trkpt lat="42.89552" lon="-0.39879">
        <ele>1848.271729</ele>
        <time>2011-10-16T12:19:40Z</time>
      </trkpt>
      <trkpt lat="42.89551" lon="-0.39856">
        <ele>1844.907227</ele>
        <time>2011-10-16T12:19:57Z</time>
      </trkpt>
      <trkpt lat="42.89543" lon="-0.39837">
        <ele>1841.542725</ele>
        <time>2011-10-16T12:20:14Z</time>
      </trkpt>
      <trkpt lat="42.89539" lon="-0.39842">
        <ele>1840.10083</ele>
        <time>2011-10-16T12:20:19Z</time>
      </trkpt>
      <trkpt lat="42.89537" lon="-0.39846">
        <ele>1839.620117</ele>
        <time>2011-10-16T12:20:37Z</time>
      </trkpt>
      <trkpt lat="42.89534" lon="-0.3986">
        <ele>1839.139404</ele>
        <time>2011-10-16T12:20:56Z</time>
      </trkpt>
      <trkpt lat="42.89526" lon="-0.39881">
        <ele>1835.293945</ele>
        <time>2011-10-16T12:21:12Z</time>
      </trkpt>
      <trkpt lat="42.89519" lon="-0.39893">
        <ele>1833.852051</ele>
        <time>2011-10-16T12:21:22Z</time>
      </trkpt>
      <trkpt lat="42.89504" lon="-0.39919">
        <ele>1832.410156</ele>
        <time>2011-10-16T12:21:44Z</time>
      </trkpt>
      <trkpt lat="42.89495" lon="-0.39945">
        <ele>1829.526123</ele>
        <time>2011-10-16T12:22:04Z</time>
      </trkpt>
      <trkpt lat="42.89488" lon="-0.39971">
        <ele>1825.680908</ele>
        <time>2011-10-16T12:22:22Z</time>
      </trkpt>
      <trkpt lat="42.89488" lon="-0.39972">
        <ele>1826.161621</ele>
        <time>2011-10-16T12:22:23Z</time>
      </trkpt>
      <trkpt lat="42.89483" lon="-0.39995">
        <ele>1823.277832</ele>
        <time>2011-10-16T12:22:39Z</time>
      </trkpt>
      <trkpt lat="42.89471" lon="-0.40015">
        <ele>1819.912842</ele>
        <time>2011-10-16T12:22:57Z</time>
      </trkpt>
      <trkpt lat="42.89462" lon="-0.40037">
        <ele>1817.029053</ele>
        <time>2011-10-16T12:23:15Z</time>
      </trkpt>
      <trkpt lat="42.89451" lon="-0.4007">
        <ele>1814.14502</ele>
        <time>2011-10-16T12:23:39Z</time>
      </trkpt>
      <trkpt lat="42.8944" lon="-0.40098">
        <ele>1811.26123</ele>
        <time>2011-10-16T12:24:00Z</time>
      </trkpt>
      <trkpt lat="42.89427" lon="-0.40113">
        <ele>1808.377197</ele>
        <time>2011-10-16T12:24:17Z</time>
      </trkpt>
      <trkpt lat="42.89415" lon="-0.40134">
        <ele>1805.493408</ele>
        <time>2011-10-16T12:24:36Z</time>
      </trkpt>
      <trkpt lat="42.8941" lon="-0.40161">
        <ele>1802.609131</ele>
        <time>2011-10-16T12:24:55Z</time>
      </trkpt>
      <trkpt lat="42.89402" lon="-0.40177">
        <ele>1799.244629</ele>
        <time>2011-10-16T12:25:09Z</time>
      </trkpt>
      <trkpt lat="42.89384" lon="-0.40199">
        <ele>1796.36084</ele>
        <time>2011-10-16T12:25:32Z</time>
      </trkpt>
      <trkpt lat="42.89366" lon="-0.40229">
        <ele>1794.437988</ele>
        <time>2011-10-16T12:25:56Z</time>
      </trkpt>
      <trkpt lat="42.89363" lon="-0.4023">
        <ele>1793.95752</ele>
        <time>2011-10-16T12:26:03Z</time>
      </trkpt>
      <trkpt lat="42.89372" lon="-0.40209">
        <ele>1791.554199</ele>
        <time>2011-10-16T12:26:19Z</time>
      </trkpt>
      <trkpt lat="42.8938" lon="-0.40182">
        <ele>1788.67041</ele>
        <time>2011-10-16T12:26:38Z</time>
      </trkpt>
      <trkpt lat="42.89378" lon="-0.40167">
        <ele>1784.824951</ele>
        <time>2011-10-16T12:26:49Z</time>
      </trkpt>
      <trkpt lat="42.89376" lon="-0.4015">
        <ele>1783.863525</ele>
        <time>2011-10-16T12:27:01Z</time>
      </trkpt>
      <trkpt lat="42.89385" lon="-0.40117">
        <ele>1781.460205</ele>
        <time>2011-10-16T12:27:24Z</time>
      </trkpt>
      <trkpt lat="42.89389" lon="-0.40098">
        <ele>1779.056885</ele>
        <time>2011-10-16T12:27:43Z</time>
      </trkpt>
      <trkpt lat="42.8939" lon="-0.40084">
        <ele>1775.692383</ele>
        <time>2011-10-16T12:27:55Z</time>
      </trkpt>
      <trkpt lat="42.89387" lon="-0.40051">
        <ele>1773.289307</ele>
        <time>2011-10-16T12:28:18Z</time>
      </trkpt>
      <trkpt lat="42.89387" lon="-0.40041">
        <ele>1771.366211</ele>
        <time>2011-10-16T12:28:25Z</time>
      </trkpt>
      <trkpt lat="42.89376" lon="-0.40024">
        <ele>1769.443848</ele>
        <time>2011-10-16T12:28:42Z</time>
      </trkpt>
      <trkpt lat="42.89371" lon="-0.40042">
        <ele>1768.001709</ele>
        <time>2011-10-16T12:28:58Z</time>
      </trkpt>
      <trkpt lat="42.89371" lon="-0.40059">
        <ele>1766.559814</ele>
        <time>2011-10-16T12:29:20Z</time>
      </trkpt>
      <trkpt lat="42.8936" lon="-0.40083">
        <ele>1764.156494</ele>
        <time>2011-10-16T12:29:40Z</time>
      </trkpt>
      <trkpt lat="42.89343" lon="-0.40098">
        <ele>1760.311279</ele>
        <time>2011-10-16T12:29:58Z</time>
      </trkpt>
      <trkpt lat="42.89331" lon="-0.40113">
        <ele>1757.42749</ele>
        <time>2011-10-16T12:30:15Z</time>
      </trkpt>
      <trkpt lat="42.89316" lon="-0.40134">
        <ele>1754.543213</ele>
        <time>2011-10-16T12:30:34Z</time>
      </trkpt>
      <trkpt lat="42.89307" lon="-0.40171">
        <ele>1753.101318</ele>
        <time>2011-10-16T12:30:57Z</time>
      </trkpt>
      <trkpt lat="42.89304" lon="-0.40163">
        <ele>1752.139893</ele>
        <time>2011-10-16T12:31:06Z</time>
      </trkpt>
      <trkpt lat="42.89305" lon="-0.40145">
        <ele>1748.294678</ele>
        <time>2011-10-16T12:31:19Z</time>
      </trkpt>
      <trkpt lat="42.89304" lon="-0.40143">
        <ele>1748.294678</ele>
        <time>2011-10-16T12:31:20Z</time>
      </trkpt>
      <trkpt lat="42.893" lon="-0.4013">
        <ele>1746.852783</ele>
        <time>2011-10-16T12:31:35Z</time>
      </trkpt>
      <trkpt lat="42.893" lon="-0.401">
        <ele>1744.930176</ele>
        <time>2011-10-16T12:31:56Z</time>
      </trkpt>
      <trkpt lat="42.89314" lon="-0.40078">
        <ele>1742.046387</ele>
        <time>2011-10-16T12:32:14Z</time>
      </trkpt>
      <trkpt lat="42.89323" lon="-0.40049">
        <ele>1738.681641</ele>
        <time>2011-10-16T12:32:34Z</time>
      </trkpt>
      <trkpt lat="42.89314" lon="-0.40036">
        <ele>1736.27832</ele>
        <time>2011-10-16T12:32:49Z</time>
      </trkpt>
      <trkpt lat="42.89303" lon="-0.40051">
        <ele>1733.875</ele>
        <time>2011-10-16T12:33:02Z</time>
      </trkpt>
      <trkpt lat="42.89279" lon="-0.40077">
        <ele>1730.991211</ele>
        <time>2011-10-16T12:33:28Z</time>
      </trkpt>
      <trkpt lat="42.89257" lon="-0.40106">
        <ele>1728.587891</ele>
        <time>2011-10-16T12:33:53Z</time>
      </trkpt>
      <trkpt lat="42.89254" lon="-0.40137">
        <ele>1725.703857</ele>
        <time>2011-10-16T12:34:13Z</time>
      </trkpt>
      <trkpt lat="42.89252" lon="-0.40143">
        <ele>1724.261963</ele>
        <time>2011-10-16T12:34:18Z</time>
      </trkpt>
      <trkpt lat="42.89236" lon="-0.40162">
        <ele>1720.416504</ele>
        <time>2011-10-16T12:34:37Z</time>
      </trkpt>
      <trkpt lat="42.89222" lon="-0.40174">
        <ele>1717.532471</ele>
        <time>2011-10-16T12:34:51Z</time>
      </trkpt>
      <trkpt lat="42.89201" lon="-0.40193">
        <ele>1714.167969</ele>
        <time>2011-10-16T12:35:14Z</time>
      </trkpt>
      <trkpt lat="42.89199" lon="-0.40195">
        <ele>1713.687256</ele>
        <time>2011-10-16T12:35:16Z</time>
      </trkpt>
      <trkpt lat="42.89183" lon="-0.40211">
        <ele>1710.322754</ele>
        <time>2011-10-16T12:35:34Z</time>
      </trkpt>
      <trkpt lat="42.89166" lon="-0.40228">
        <ele>1707.919434</ele>
        <time>2011-10-16T12:35:53Z</time>
      </trkpt>
      <trkpt lat="42.89146" lon="-0.40244">
        <ele>1704.554688</ele>
        <time>2011-10-16T12:36:12Z</time>
      </trkpt>
      <trkpt lat="42.89137" lon="-0.40255">
        <ele>1703.593506</ele>
        <time>2011-10-16T12:36:27Z</time>
      </trkpt>
      <trkpt lat="42.89122" lon="-0.40271">
        <ele>1700.229004</ele>
        <time>2011-10-16T12:36:45Z</time>
      </trkpt>
      <trkpt lat="42.89101" lon="-0.40297">
        <ele>1696.383789</ele>
        <time>2011-10-16T12:37:10Z</time>
      </trkpt>
      <trkpt lat="42.89096" lon="-0.40287">
        <ele>1694.94165</ele>
        <time>2011-10-16T12:37:24Z</time>
      </trkpt>
      <trkpt lat="42.89096" lon="-0.40286">
        <ele>1694.94165</ele>
        <time>2011-10-16T12:37:25Z</time>
      </trkpt>
      <trkpt lat="42.89108" lon="-0.40269">
        <ele>1693.019043</ele>
        <time>2011-10-16T12:37:40Z</time>
      </trkpt>
      <trkpt lat="42.89111" lon="-0.40267">
        <ele>1692.538574</ele>
        <time>2011-10-16T12:37:42Z</time>
      </trkpt>
      <trkpt lat="42.89115" lon="-0.40259">
        <ele>1692.057861</ele>
        <time>2011-10-16T12:37:48Z</time>
      </trkpt>
      <trkpt lat="42.89119" lon="-0.40252">
        <ele>1691.576904</ele>
        <time>2011-10-16T12:37:53Z</time>
      </trkpt>
      <trkpt lat="42.89129" lon="-0.40236">
        <ele>1687.250977</ele>
        <time>2011-10-16T12:38:06Z</time>
      </trkpt>
      <trkpt lat="42.89135" lon="-0.40223">
        <ele>1686.289795</ele>
        <time>2011-10-16T12:38:27Z</time>
      </trkpt>
      <trkpt lat="42.8914" lon="-0.4021">
        <ele>1684.367188</ele>
        <time>2011-10-16T12:38:38Z</time>
      </trkpt>
      <trkpt lat="42.89143" lon="-0.4019">
        <ele>1681.002686</ele>
        <time>2011-10-16T12:38:52Z</time>
      </trkpt>
      <trkpt lat="42.89143" lon="-0.40189">
        <ele>1681.002686</ele>
        <time>2011-10-16T12:38:53Z</time>
      </trkpt>
      <trkpt lat="42.89145" lon="-0.40171">
        <ele>1678.118652</ele>
        <time>2011-10-16T12:39:06Z</time>
      </trkpt>
      <trkpt lat="42.89152" lon="-0.40144">
        <ele>1675.234375</ele>
        <time>2011-10-16T12:39:24Z</time>
      </trkpt>
      <trkpt lat="42.89157" lon="-0.40133">
        <ele>1674.273193</ele>
        <time>2011-10-16T12:39:33Z</time>
      </trkpt>
      <trkpt lat="42.89163" lon="-0.40128">
        <ele>1672.831299</ele>
        <time>2011-10-16T12:39:39Z</time>
      </trkpt>
      <trkpt lat="42.89177" lon="-0.40111">
        <ele>1672.350586</ele>
        <time>2011-10-16T12:39:54Z</time>
      </trkpt>
      <trkpt lat="42.89185" lon="-0.4008">
        <ele>1669.947266</ele>
        <time>2011-10-16T12:40:13Z</time>
      </trkpt>
      <trkpt lat="42.89187" lon="-0.40073">
        <ele>1668.505371</ele>
        <time>2011-10-16T12:40:18Z</time>
      </trkpt>
      <trkpt lat="42.89188" lon="-0.4005">
        <ele>1665.140869</ele>
        <time>2011-10-16T12:40:33Z</time>
      </trkpt>
      <trkpt lat="42.89188" lon="-0.40045">
        <ele>1664.179443</ele>
        <time>2011-10-16T12:40:36Z</time>
      </trkpt>
      <trkpt lat="42.89184" lon="-0.40035">
        <ele>1663.69873</ele>
        <time>2011-10-16T12:40:52Z</time>
      </trkpt>
      <trkpt lat="42.89181" lon="-0.40015">
        <ele>1663.69873</ele>
        <time>2011-10-16T12:41:12Z</time>
      </trkpt>
      <trkpt lat="42.8918" lon="-0.40007">
        <ele>1662.256836</ele>
        <time>2011-10-16T12:41:18Z</time>
      </trkpt>
      <trkpt lat="42.89178" lon="-0.39981">
        <ele>1659.853271</ele>
        <time>2011-10-16T12:41:34Z</time>
      </trkpt>
      <trkpt lat="42.89168" lon="-0.4">
        <ele>1657.450195</ele>
        <time>2011-10-16T12:41:50Z</time>
      </trkpt>
      <trkpt lat="42.89168" lon="-0.40022">
        <ele>1655.046875</ele>
        <time>2011-10-16T12:42:07Z</time>
      </trkpt>
      <trkpt lat="42.89167" lon="-0.40048">
        <ele>1652.643555</ele>
        <time>2011-10-16T12:42:24Z</time>
      </trkpt>
      <trkpt lat="42.89153" lon="-0.40071">
        <ele>1651.682373</ele>
        <time>2011-10-16T12:42:44Z</time>
      </trkpt>
      <trkpt lat="42.89133" lon="-0.40095">
        <ele>1648.79834</ele>
        <time>2011-10-16T12:43:05Z</time>
      </trkpt>
      <trkpt lat="42.8911" lon="-0.40119">
        <ele>1646.875732</ele>
        <time>2011-10-16T12:43:27Z</time>
      </trkpt>
      <trkpt lat="42.89106" lon="-0.40126">
        <ele>1646.395264</ele>
        <time>2011-10-16T12:43:32Z</time>
      </trkpt>
      <trkpt lat="42.89095" lon="-0.40145">
        <ele>1643.030273</ele>
        <time>2011-10-16T12:43:46Z</time>
      </trkpt>
      <trkpt lat="42.89082" lon="-0.40177">
        <ele>1643.030273</ele>
        <time>2011-10-16T12:44:06Z</time>
      </trkpt>
      <trkpt lat="42.8906" lon="-0.40204">
        <ele>1641.588379</ele>
        <time>2011-10-16T12:44:29Z</time>
      </trkpt>
      <trkpt lat="42.89058" lon="-0.40199">
        <ele>1641.107666</ele>
        <time>2011-10-16T12:44:34Z</time>
      </trkpt>
      <trkpt lat="42.89073" lon="-0.40184">
        <ele>1638.223877</ele>
        <time>2011-10-16T12:44:48Z</time>
      </trkpt>
      <trkpt lat="42.8908" lon="-0.40171">
        <ele>1635.820557</ele>
        <time>2011-10-16T12:44:57Z</time>
      </trkpt>
      <trkpt lat="42.89089" lon="-0.40143">
        <ele>1633.417236</ele>
        <time>2011-10-16T12:45:14Z</time>
      </trkpt>
      <trkpt lat="42.89098" lon="-0.40117">
        <ele>1632.456055</ele>
        <time>2011-10-16T12:45:31Z</time>
      </trkpt>
      <trkpt lat="42.891" lon="-0.40107">
        <ele>1630.052734</ele>
        <time>2011-10-16T12:45:38Z</time>
      </trkpt>
      <trkpt lat="42.89107" lon="-0.40084">
        <ele>1627.168701</ele>
        <time>2011-10-16T12:45:54Z</time>
      </trkpt>
      <trkpt lat="42.89109" lon="-0.40055">
        <ele>1625.24585</ele>
        <time>2011-10-16T12:46:10Z</time>
      </trkpt>
      <trkpt lat="42.89109" lon="-0.40031">
        <ele>1624.765381</ele>
        <time>2011-10-16T12:46:23Z</time>
      </trkpt>
      <trkpt lat="42.8911" lon="-0.40002">
        <ele>1622.842773</ele>
        <time>2011-10-16T12:46:41Z</time>
      </trkpt>
      <trkpt lat="42.89102" lon="-0.39988">
        <ele>1622.362061</ele>
        <time>2011-10-16T12:46:51Z</time>
      </trkpt>
      <trkpt lat="42.89098" lon="-0.39985">
        <ele>1621.881348</ele>
        <time>2011-10-16T12:46:55Z</time>
      </trkpt>
      <trkpt lat="42.89094" lon="-0.39981">
        <ele>1619.95874</ele>
        <time>2011-10-16T12:46:59Z</time>
      </trkpt>
      <trkpt lat="42.89084" lon="-0.39971">
        <ele>1618.036133</ele>
        <time>2011-10-16T12:47:11Z</time>
      </trkpt>
      <trkpt lat="42.89066" lon="-0.39962">
        <ele>1614.190918</ele>
        <time>2011-10-16T12:47:27Z</time>
      </trkpt>
      <trkpt lat="42.89051" lon="-0.39947">
        <ele>1611.306885</ele>
        <time>2011-10-16T12:47:44Z</time>
      </trkpt>
      <trkpt lat="42.89033" lon="-0.39919">
        <ele>1608.903564</ele>
        <time>2011-10-16T12:48:06Z</time>
      </trkpt>
      <trkpt lat="42.89032" lon="-0.39916">
        <ele>1607.942383</ele>
        <time>2011-10-16T12:48:08Z</time>
      </trkpt>
      <trkpt lat="42.89035" lon="-0.39904">
        <ele>1606.019531</ele>
        <time>2011-10-16T12:48:16Z</time>
      </trkpt>
      <trkpt lat="42.89039" lon="-0.39891">
        <ele>1602.174316</ele>
        <time>2011-10-16T12:48:25Z</time>
      </trkpt>
      <trkpt lat="42.8904" lon="-0.39889">
        <ele>1602.174316</ele>
        <time>2011-10-16T12:48:26Z</time>
      </trkpt>
      <trkpt lat="42.89048" lon="-0.39867">
        <ele>1601.213135</ele>
        <time>2011-10-16T12:48:41Z</time>
      </trkpt>
      <trkpt lat="42.89049" lon="-0.39866">
        <ele>1600.732422</ele>
        <time>2011-10-16T12:48:42Z</time>
      </trkpt>
      <trkpt lat="42.89066" lon="-0.39853">
        <ele>1598.809814</ele>
        <time>2011-10-16T12:48:58Z</time>
      </trkpt>
      <trkpt lat="42.89082" lon="-0.39836">
        <ele>1596.406738</ele>
        <time>2011-10-16T12:49:13Z</time>
      </trkpt>
      <trkpt lat="42.89092" lon="-0.39807">
        <ele>1594.003174</ele>
        <time>2011-10-16T12:49:33Z</time>
      </trkpt>
      <trkpt lat="42.89094" lon="-0.39791">
        <ele>1592.080566</ele>
        <time>2011-10-16T12:49:46Z</time>
      </trkpt>
      <trkpt lat="42.89095" lon="-0.39781">
        <ele>1589.196533</ele>
        <time>2011-10-16T12:49:52Z</time>
      </trkpt>
      <trkpt lat="42.89099" lon="-0.39763">
        <ele>1587.273926</ele>
        <time>2011-10-16T12:50:03Z</time>
      </trkpt>
      <trkpt lat="42.89109" lon="-0.39741">
        <ele>1584.390137</ele>
        <time>2011-10-16T12:50:19Z</time>
      </trkpt>
      <trkpt lat="42.89111" lon="-0.39714">
        <ele>1584.390137</ele>
        <time>2011-10-16T12:50:35Z</time>
      </trkpt>
      <trkpt lat="42.89104" lon="-0.39706">
        <ele>1582.467529</ele>
        <time>2011-10-16T12:50:41Z</time>
      </trkpt>
      <trkpt lat="42.89085" lon="-0.39688">
        <ele>1581.506104</ele>
        <time>2011-10-16T12:50:59Z</time>
      </trkpt>
      <trkpt lat="42.8907" lon="-0.39674">
        <ele>1578.62207</ele>
        <time>2011-10-16T12:51:14Z</time>
      </trkpt>
      <trkpt lat="42.89059" lon="-0.39659">
        <ele>1575.738037</ele>
        <time>2011-10-16T12:51:30Z</time>
      </trkpt>
      <trkpt lat="42.89053" lon="-0.39652">
        <ele>1572.854248</ele>
        <time>2011-10-16T12:51:37Z</time>
      </trkpt>
      <trkpt lat="42.89047" lon="-0.39644">
        <ele>1571.412109</ele>
        <time>2011-10-16T12:51:45Z</time>
      </trkpt>
      <trkpt lat="42.89041" lon="-0.3964">
        <ele>1570.450928</ele>
        <time>2011-10-16T12:51:50Z</time>
      </trkpt>
      <trkpt lat="42.89027" lon="-0.3964">
        <ele>1569.009033</ele>
        <time>2011-10-16T12:52:01Z</time>
      </trkpt>
      <trkpt lat="42.89014" lon="-0.39646">
        <ele>1567.086426</ele>
        <time>2011-10-16T12:52:13Z</time>
      </trkpt>
      <trkpt lat="42.88989" lon="-0.39648">
        <ele>1566.125</ele>
        <time>2011-10-16T12:52:31Z</time>
      </trkpt>
      <trkpt lat="42.88967" lon="-0.39649">
        <ele>1561.318359</ele>
        <time>2011-10-16T12:52:50Z</time>
      </trkpt>
      <trkpt lat="42.88959" lon="-0.39649">
        <ele>1559.876221</ele>
        <time>2011-10-16T12:52:57Z</time>
      </trkpt>
      <trkpt lat="42.88945" lon="-0.39644">
        <ele>1558.434326</ele>
        <time>2011-10-16T12:53:11Z</time>
      </trkpt>
      <trkpt lat="42.8894" lon="-0.39626">
        <ele>1555.550537</ele>
        <time>2011-10-16T12:53:27Z</time>
      </trkpt>
      <trkpt lat="42.88942" lon="-0.39607">
        <ele>1554.108643</ele>
        <time>2011-10-16T12:53:40Z</time>
      </trkpt>
      <trkpt lat="42.88948" lon="-0.39585">
        <ele>1552.185791</ele>
        <time>2011-10-16T12:53:55Z</time>
      </trkpt>
      <trkpt lat="42.88945" lon="-0.39556">
        <ele>1550.263428</ele>
        <time>2011-10-16T12:54:14Z</time>
      </trkpt>
      <trkpt lat="42.88926" lon="-0.39546">
        <ele>1548.821289</ele>
        <time>2011-10-16T12:54:31Z</time>
      </trkpt>
      <trkpt lat="42.8892" lon="-0.39547">
        <ele>1548.340576</ele>
        <time>2011-10-16T12:54:39Z</time>
      </trkpt>
      <trkpt lat="42.88906" lon="-0.39545">
        <ele>1547.37915</ele>
        <time>2011-10-16T12:54:49Z</time>
      </trkpt>
      <trkpt lat="42.88899" lon="-0.39539">
        <ele>1546.417969</ele>
        <time>2011-10-16T12:54:54Z</time>
      </trkpt>
      <trkpt lat="42.88885" lon="-0.39523">
        <ele>1544.014648</ele>
        <time>2011-10-16T12:55:10Z</time>
      </trkpt>
      <trkpt lat="42.88872" lon="-0.39517">
        <ele>1541.611328</ele>
        <time>2011-10-16T12:55:26Z</time>
      </trkpt>
      <trkpt lat="42.88861" lon="-0.39514">
        <ele>1541.611328</ele>
        <time>2011-10-16T12:55:57Z</time>
      </trkpt>
      <trkpt lat="42.88861" lon="-0.3951">
        <ele>1542.092041</ele>
        <time>2011-10-16T12:56:16Z</time>
      </trkpt>
      <trkpt lat="42.88853" lon="-0.39505">
        <ele>1541.611328</ele>
        <time>2011-10-16T12:56:42Z</time>
      </trkpt>
      <trkpt lat="42.88841" lon="-0.39496">
        <ele>1538.246826</ele>
        <time>2011-10-16T12:56:57Z</time>
      </trkpt>
      <trkpt lat="42.88838" lon="-0.39475">
        <ele>1535.362793</ele>
        <time>2011-10-16T12:57:13Z</time>
      </trkpt>
      <trkpt lat="42.88837" lon="-0.3947">
        <ele>1535.843506</ele>
        <time>2011-10-16T12:57:16Z</time>
      </trkpt>
      <trkpt lat="42.88843" lon="-0.39433">
        <ele>1532.479004</ele>
        <time>2011-10-16T12:57:37Z</time>
      </trkpt>
      <trkpt lat="42.88828" lon="-0.39409">
        <ele>1529.594727</ele>
        <time>2011-10-16T12:57:56Z</time>
      </trkpt>
      <trkpt lat="42.88821" lon="-0.39406">
        <ele>1528.633545</ele>
        <time>2011-10-16T12:58:02Z</time>
      </trkpt>
      <trkpt lat="42.88792" lon="-0.39411">
        <ele>1525.749512</ele>
        <time>2011-10-16T12:58:19Z</time>
      </trkpt>
      <trkpt lat="42.88781" lon="-0.39406">
        <ele>1524.307617</ele>
        <time>2011-10-16T12:58:29Z</time>
      </trkpt>
      <trkpt lat="42.88773" lon="-0.39395">
        <ele>1524.307617</ele>
        <time>2011-10-16T12:58:42Z</time>
      </trkpt>
      <trkpt lat="42.88766" lon="-0.39373">
        <ele>1520.462402</ele>
        <time>2011-10-16T12:58:59Z</time>
      </trkpt>
      <trkpt lat="42.88762" lon="-0.39363">
        <ele>1517.0979</ele>
        <time>2011-10-16T12:59:07Z</time>
      </trkpt>
      <trkpt lat="42.88758" lon="-0.39336">
        <ele>1516.617188</ele>
        <time>2011-10-16T12:59:24Z</time>
      </trkpt>
      <trkpt lat="42.88747" lon="-0.39307">
        <ele>1513.252441</ele>
        <time>2011-10-16T12:59:42Z</time>
      </trkpt>
      <trkpt lat="42.88736" lon="-0.39288">
        <ele>1512.291016</ele>
        <time>2011-10-16T12:59:57Z</time>
      </trkpt>
      <trkpt lat="42.88729" lon="-0.39284">
        <ele>1512.291016</ele>
        <time>2011-10-16T13:00:04Z</time>
      </trkpt>
      <trkpt lat="42.88722" lon="-0.3929">
        <ele>1513.252441</ele>
        <time>2011-10-16T13:00:12Z</time>
      </trkpt>
      <trkpt lat="42.88713" lon="-0.39304">
        <ele>1511.810547</ele>
        <time>2011-10-16T13:00:26Z</time>
      </trkpt>
      <trkpt lat="42.88707" lon="-0.39322">
        <ele>1509.407227</ele>
        <time>2011-10-16T13:00:39Z</time>
      </trkpt>
      <trkpt lat="42.88688" lon="-0.39342">
        <ele>1507.484619</ele>
        <time>2011-10-16T13:00:59Z</time>
      </trkpt>
      <trkpt lat="42.88679" lon="-0.39369">
        <ele>1504.600586</ele>
        <time>2011-10-16T13:01:17Z</time>
      </trkpt>
      <trkpt lat="42.88658" lon="-0.3939">
        <ele>1501.716797</ele>
        <time>2011-10-16T13:01:36Z</time>
      </trkpt>
      <trkpt lat="42.88638" lon="-0.39409">
        <ele>1498.83252</ele>
        <time>2011-10-16T13:01:53Z</time>
      </trkpt>
      <trkpt lat="42.8862" lon="-0.39412">
        <ele>1495.468018</ele>
        <time>2011-10-16T13:02:07Z</time>
      </trkpt>
      <trkpt lat="42.88612" lon="-0.39413">
        <ele>1493.064697</ele>
        <time>2011-10-16T13:02:18Z</time>
      </trkpt>
      <trkpt lat="42.88594" lon="-0.39412">
        <ele>1491.14209</ele>
        <time>2011-10-16T13:02:32Z</time>
      </trkpt>
      <trkpt lat="42.88578" lon="-0.3941">
        <ele>1488.258301</ele>
        <time>2011-10-16T13:02:46Z</time>
      </trkpt>
      <trkpt lat="42.88572" lon="-0.39408">
        <ele>1486.816162</ele>
        <time>2011-10-16T13:02:50Z</time>
      </trkpt>
      <trkpt lat="42.88569" lon="-0.39407">
        <ele>1486.335693</ele>
        <time>2011-10-16T13:02:54Z</time>
      </trkpt>
      <trkpt lat="42.88562" lon="-0.394">
        <ele>1485.374268</ele>
        <time>2011-10-16T13:03:01Z</time>
      </trkpt>
      <trkpt lat="42.88559" lon="-0.39395">
        <ele>1484.893799</ele>
        <time>2011-10-16T13:03:05Z</time>
      </trkpt>
      <trkpt lat="42.88558" lon="-0.39392">
        <ele>1484.413086</ele>
        <time>2011-10-16T13:03:07Z</time>
      </trkpt>
      <trkpt lat="42.88555" lon="-0.39378">
        <ele>1483.451416</ele>
        <time>2011-10-16T13:03:18Z</time>
      </trkpt>
      <trkpt lat="42.88553" lon="-0.39377">
        <ele>1483.451416</ele>
        <time>2011-10-16T13:03:21Z</time>
      </trkpt>
      <trkpt lat="42.8854" lon="-0.39377">
        <ele>1482.490234</ele>
        <time>2011-10-16T13:03:33Z</time>
      </trkpt>
      <trkpt lat="42.8852" lon="-0.39387">
        <ele>1481.04834</ele>
        <time>2011-10-16T13:03:46Z</time>
      </trkpt>
      <trkpt lat="42.88517" lon="-0.39386">
        <ele>1480.567627</ele>
        <time>2011-10-16T13:03:49Z</time>
      </trkpt>
      <trkpt lat="42.88507" lon="-0.39391">
        <ele>1478.164307</ele>
        <time>2011-10-16T13:03:58Z</time>
      </trkpt>
      <trkpt lat="42.88498" lon="-0.39386">
        <ele>1477.203125</ele>
        <time>2011-10-16T13:04:06Z</time>
      </trkpt>
      <trkpt lat="42.88485" lon="-0.39391">
        <ele>1476.241699</ele>
        <time>2011-10-16T13:04:20Z</time>
      </trkpt>
      <trkpt lat="42.88469" lon="-0.3939">
        <ele>1474.319092</ele>
        <time>2011-10-16T13:04:35Z</time>
      </trkpt>
      <trkpt lat="42.88465" lon="-0.3939">
        <ele>1473.35791</ele>
        <time>2011-10-16T13:04:37Z</time>
      </trkpt>
      <trkpt lat="42.8846" lon="-0.39391">
        <ele>1473.35791</ele>
        <time>2011-10-16T13:04:41Z</time>
      </trkpt>
      <trkpt lat="42.88437" lon="-0.39397">
        <ele>1471.435059</ele>
        <time>2011-10-16T13:04:59Z</time>
      </trkpt>
      <trkpt lat="42.8842" lon="-0.39399">
        <ele>1469.993164</ele>
        <time>2011-10-16T13:05:11Z</time>
      </trkpt>
      <trkpt lat="42.88414" lon="-0.394">
        <ele>1469.031982</ele>
        <time>2011-10-16T13:05:17Z</time>
      </trkpt>
      <trkpt lat="42.88392" lon="-0.39407">
        <ele>1466.628418</ele>
        <time>2011-10-16T13:05:31Z</time>
      </trkpt>
      <trkpt lat="42.88384" lon="-0.39405">
        <ele>1465.186523</ele>
        <time>2011-10-16T13:05:37Z</time>
      </trkpt>
      <trkpt lat="42.88374" lon="-0.39411">
        <ele>1462.783203</ele>
        <time>2011-10-16T13:05:54Z</time>
      </trkpt>
      <trkpt lat="42.88357" lon="-0.39415">
        <ele>1459.89917</ele>
        <time>2011-10-16T13:06:08Z</time>
      </trkpt>
      <trkpt lat="42.88337" lon="-0.39419">
        <ele>1458.457275</ele>
        <time>2011-10-16T13:06:20Z</time>
      </trkpt>
      <trkpt lat="42.88334" lon="-0.39419">
        <ele>1458.457275</ele>
        <time>2011-10-16T13:06:22Z</time>
      </trkpt>
      <trkpt lat="42.88321" lon="-0.39421">
        <ele>1457.496094</ele>
        <time>2011-10-16T13:06:31Z</time>
      </trkpt>
      <trkpt lat="42.88306" lon="-0.39411">
        <ele>1455.092773</ele>
        <time>2011-10-16T13:06:46Z</time>
      </trkpt>
      <trkpt lat="42.88293" lon="-0.39409">
        <ele>1454.131592</ele>
        <time>2011-10-16T13:06:58Z</time>
      </trkpt>
      <trkpt lat="42.8829" lon="-0.39402">
        <ele>1453.650879</ele>
        <time>2011-10-16T13:07:02Z</time>
      </trkpt>
      <trkpt lat="42.88277" lon="-0.39379">
        <ele>1452.689453</ele>
        <time>2011-10-16T13:07:18Z</time>
      </trkpt>
      <trkpt lat="42.88269" lon="-0.39356">
        <ele>1450.766602</ele>
        <time>2011-10-16T13:07:35Z</time>
      </trkpt>
      <trkpt lat="42.88267" lon="-0.39351">
        <ele>1450.286133</ele>
        <time>2011-10-16T13:07:45Z</time>
      </trkpt>
      <trkpt lat="42.88261" lon="-0.39359">
        <ele>1450.286133</ele>
        <time>2011-10-16T13:08:01Z</time>
      </trkpt>
      <trkpt lat="42.8824" lon="-0.3937">
        <ele>1449.324707</ele>
        <time>2011-10-16T13:08:15Z</time>
      </trkpt>
      <trkpt lat="42.88227" lon="-0.39372">
        <ele>1448.363281</ele>
        <time>2011-10-16T13:08:24Z</time>
      </trkpt>
      <trkpt lat="42.88223" lon="-0.39371">
        <ele>1447.4021</ele>
        <time>2011-10-16T13:08:28Z</time>
      </trkpt>
      <trkpt lat="42.88204" lon="-0.39377">
        <ele>1446.440918</ele>
        <time>2011-10-16T13:08:42Z</time>
      </trkpt>
      <trkpt lat="42.88187" lon="-0.39377">
        <ele>1445.479492</ele>
        <time>2011-10-16T13:08:51Z</time>
      </trkpt>
      <trkpt lat="42.8818" lon="-0.39376">
        <ele>1444.998779</ele>
        <time>2011-10-16T13:08:55Z</time>
      </trkpt>
      <trkpt lat="42.88158" lon="-0.3938">
        <ele>1444.037598</ele>
        <time>2011-10-16T13:09:12Z</time>
      </trkpt>
      <trkpt lat="42.88154" lon="-0.39379">
        <ele>1443.556885</ele>
        <time>2011-10-16T13:09:14Z</time>
      </trkpt>
      <trkpt lat="42.8814" lon="-0.39383">
        <ele>1442.11499</ele>
        <time>2011-10-16T13:09:29Z</time>
      </trkpt>
      <trkpt lat="42.88137" lon="-0.39384">
        <ele>1441.634277</ele>
        <time>2011-10-16T13:09:32Z</time>
      </trkpt>
      <trkpt lat="42.88122" lon="-0.39388">
        <ele>1440.192383</ele>
        <time>2011-10-16T13:09:46Z</time>
      </trkpt>
      <trkpt lat="42.88107" lon="-0.39392">
        <ele>1436.827637</ele>
        <time>2011-10-16T13:10:00Z</time>
      </trkpt>
      <trkpt lat="42.88101" lon="-0.39391">
        <ele>1436.827637</ele>
        <time>2011-10-16T13:10:04Z</time>
      </trkpt>
      <trkpt lat="42.88081" lon="-0.39414">
        <ele>1433.943604</ele>
        <time>2011-10-16T13:10:18Z</time>
      </trkpt>
      <trkpt lat="42.88086" lon="-0.39417">
        <ele>1433.462891</ele>
        <time>2011-10-16T13:10:23Z</time>
      </trkpt>
      <trkpt lat="42.88099" lon="-0.39416">
        <ele>1432.982178</ele>
        <time>2011-10-16T13:10:30Z</time>
      </trkpt>
      <trkpt lat="42.88124" lon="-0.39414">
        <ele>1430.579102</ele>
        <time>2011-10-16T13:10:48Z</time>
      </trkpt>
      <trkpt lat="42.88139" lon="-0.39419">
        <ele>1427.2146</ele>
        <time>2011-10-16T13:11:04Z</time>
      </trkpt>
      <trkpt lat="42.88156" lon="-0.39424">
        <ele>1425.291748</ele>
        <time>2011-10-16T13:11:19Z</time>
      </trkpt>
      <trkpt lat="42.88176" lon="-0.39437">
        <ele>1421.446533</ele>
        <time>2011-10-16T13:11:37Z</time>
      </trkpt>
      <trkpt lat="42.88188" lon="-0.39441">
        <ele>1420.004639</ele>
        <time>2011-10-16T13:11:50Z</time>
      </trkpt>
      <trkpt lat="42.88201" lon="-0.39452">
        <ele>1418.5625</ele>
        <time>2011-10-16T13:12:04Z</time>
      </trkpt>
      <trkpt lat="42.88224" lon="-0.39456">
        <ele>1416.639893</ele>
        <time>2011-10-16T13:12:23Z</time>
      </trkpt>
      <trkpt lat="42.88243" lon="-0.39453">
        <ele>1416.15918</ele>
        <time>2011-10-16T13:12:44Z</time>
      </trkpt>
      <trkpt lat="42.8825" lon="-0.39453">
        <ele>1415.678711</ele>
        <time>2011-10-16T13:12:53Z</time>
      </trkpt>
      <trkpt lat="42.88255" lon="-0.39461">
        <ele>1415.678711</ele>
        <time>2011-10-16T13:12:58Z</time>
      </trkpt>
      <trkpt lat="42.88265" lon="-0.39468">
        <ele>1414.236572</ele>
        <time>2011-10-16T13:13:07Z</time>
      </trkpt>
      <trkpt lat="42.88275" lon="-0.39491">
        <ele>1411.833496</ele>
        <time>2011-10-16T13:13:24Z</time>
      </trkpt>
      <trkpt lat="42.88288" lon="-0.39508">
        <ele>1408.949463</ele>
        <time>2011-10-16T13:13:42Z</time>
      </trkpt>
      <trkpt lat="42.883" lon="-0.39524">
        <ele>1405.584961</ele>
        <time>2011-10-16T13:13:59Z</time>
      </trkpt>
      <trkpt lat="42.88318" lon="-0.39531">
        <ele>1403.662109</ele>
        <time>2011-10-16T13:14:14Z</time>
      </trkpt>
      <trkpt lat="42.88339" lon="-0.39536">
        <ele>1401.739502</ele>
        <time>2011-10-16T13:14:31Z</time>
      </trkpt>
      <trkpt lat="42.8835" lon="-0.39538">
        <ele>1399.816895</ele>
        <time>2011-10-16T13:14:42Z</time>
      </trkpt>
      <trkpt lat="42.88367" lon="-0.39547">
        <ele>1396.452393</ele>
        <time>2011-10-16T13:14:57Z</time>
      </trkpt>
      <trkpt lat="42.88375" lon="-0.39559">
        <ele>1395.490967</ele>
        <time>2011-10-16T13:15:10Z</time>
      </trkpt>
      <trkpt lat="42.88379" lon="-0.39562">
        <ele>1394.049072</ele>
        <time>2011-10-16T13:15:13Z</time>
      </trkpt>
      <trkpt lat="42.88386" lon="-0.39579">
        <ele>1390.684326</ele>
        <time>2011-10-16T13:15:25Z</time>
      </trkpt>
      <trkpt lat="42.88401" lon="-0.3959">
        <ele>1387.31958</ele>
        <time>2011-10-16T13:15:38Z</time>
      </trkpt>
      <trkpt lat="42.88404" lon="-0.39591">
        <ele>1386.838867</ele>
        <time>2011-10-16T13:15:40Z</time>
      </trkpt>
      <trkpt lat="42.88421" lon="-0.39604">
        <ele>1385.396973</ele>
        <time>2011-10-16T13:15:58Z</time>
      </trkpt>
      <trkpt lat="42.8844" lon="-0.39618">
        <ele>1381.551758</ele>
        <time>2011-10-16T13:16:17Z</time>
      </trkpt>
      <trkpt lat="42.88457" lon="-0.39632">
        <ele>1379.62915</ele>
        <time>2011-10-16T13:16:34Z</time>
      </trkpt>
      <trkpt lat="42.88472" lon="-0.39632">
        <ele>1378.667969</ele>
        <time>2011-10-16T13:16:44Z</time>
      </trkpt>
      <trkpt lat="42.88502" lon="-0.39635">
        <ele>1377.226074</ele>
        <time>2011-10-16T13:17:01Z</time>
      </trkpt>
      <trkpt lat="42.88516" lon="-0.39643">
        <ele>1373.861328</ele>
        <time>2011-10-16T13:17:15Z</time>
      </trkpt>
      <trkpt lat="42.88535" lon="-0.39663">
        <ele>1373.380859</ele>
        <time>2011-10-16T13:17:35Z</time>
      </trkpt>
      <trkpt lat="42.8855" lon="-0.39692">
        <ele>1372.900146</ele>
        <time>2011-10-16T13:17:56Z</time>
      </trkpt>
      <trkpt lat="42.88551" lon="-0.39696">
        <ele>1372.419434</ele>
        <time>2011-10-16T13:17:59Z</time>
      </trkpt>
      <trkpt lat="42.88551" lon="-0.397">
        <ele>1371.938477</ele>
        <time>2011-10-16T13:18:02Z</time>
      </trkpt>
      <trkpt lat="42.88543" lon="-0.39699">
        <ele>1370.977295</ele>
        <time>2011-10-16T13:18:11Z</time>
      </trkpt>
      <trkpt lat="42.88529" lon="-0.3968">
        <ele>1367.612549</ele>
        <time>2011-10-16T13:18:29Z</time>
      </trkpt>
      <trkpt lat="42.88523" lon="-0.39674">
        <ele>1365.690186</ele>
        <time>2011-10-16T13:18:35Z</time>
      </trkpt>
      <trkpt lat="42.88501" lon="-0.39673">
        <ele>1363.767334</ele>
        <time>2011-10-16T13:18:53Z</time>
      </trkpt>
      <trkpt lat="42.88493" lon="-0.39674">
        <ele>1362.806152</ele>
        <time>2011-10-16T13:18:59Z</time>
      </trkpt>
      <trkpt lat="42.88487" lon="-0.39675">
        <ele>1362.325439</ele>
        <time>2011-10-16T13:19:04Z</time>
      </trkpt>
      <trkpt lat="42.8848" lon="-0.39675">
        <ele>1360.402832</ele>
        <time>2011-10-16T13:19:10Z</time>
      </trkpt>
      <trkpt lat="42.88476" lon="-0.39674">
        <ele>1358.960938</ele>
        <time>2011-10-16T13:19:13Z</time>
      </trkpt>
      <trkpt lat="42.88459" lon="-0.39669">
        <ele>1357.03833</ele>
        <time>2011-10-16T13:19:28Z</time>
      </trkpt>
      <trkpt lat="42.88439" lon="-0.39658">
        <ele>1354.634766</ele>
        <time>2011-10-16T13:19:46Z</time>
      </trkpt>
      <trkpt lat="42.88422" lon="-0.39657">
        <ele>1351.270264</ele>
        <time>2011-10-16T13:20:00Z</time>
      </trkpt>
      <trkpt lat="42.88406" lon="-0.39655">
        <ele>1349.828369</ele>
        <time>2011-10-16T13:20:13Z</time>
      </trkpt>
      <trkpt lat="42.88387" lon="-0.39658">
        <ele>1346.463867</ele>
        <time>2011-10-16T13:20:28Z</time>
      </trkpt>
      <trkpt lat="42.88365" lon="-0.39664">
        <ele>1343.579834</ele>
        <time>2011-10-16T13:20:46Z</time>
      </trkpt>
      <trkpt lat="42.88349" lon="-0.39669">
        <ele>1340.215332</ele>
        <time>2011-10-16T13:21:02Z</time>
      </trkpt>
      <trkpt lat="42.88347" lon="-0.3967">
        <ele>1340.215332</ele>
        <time>2011-10-16T13:21:04Z</time>
      </trkpt>
      <trkpt lat="42.88326" lon="-0.39668">
        <ele>1337.331055</ele>
        <time>2011-10-16T13:21:22Z</time>
      </trkpt>
      <trkpt lat="42.88307" lon="-0.39662">
        <ele>1334.447266</ele>
        <time>2011-10-16T13:21:38Z</time>
      </trkpt>
      <trkpt lat="42.88287" lon="-0.39665">
        <ele>1332.524658</ele>
        <time>2011-10-16T13:21:56Z</time>
      </trkpt>
      <trkpt lat="42.88275" lon="-0.39676">
        <ele>1331.082764</ele>
        <time>2011-10-16T13:22:12Z</time>
      </trkpt>
      <trkpt lat="42.88251" lon="-0.39695">
        <ele>1328.19873</ele>
        <time>2011-10-16T13:22:34Z</time>
      </trkpt>
      <trkpt lat="42.88229" lon="-0.39711">
        <ele>1325.79541</ele>
        <time>2011-10-16T13:22:55Z</time>
      </trkpt>
      <trkpt lat="42.88228" lon="-0.39712">
        <ele>1325.79541</ele>
        <time>2011-10-16T13:22:56Z</time>
      </trkpt>
      <trkpt lat="42.88223" lon="-0.39713">
        <ele>1324.834229</ele>
        <time>2011-10-16T13:23:00Z</time>
      </trkpt>
      <trkpt lat="42.88202" lon="-0.39718">
        <ele>1321.469238</ele>
        <time>2011-10-16T13:23:19Z</time>
      </trkpt>
      <trkpt lat="42.88191" lon="-0.39722">
        <ele>1319.066162</ele>
        <time>2011-10-16T13:23:29Z</time>
      </trkpt>
      <trkpt lat="42.88168" lon="-0.39725">
        <ele>1315.220947</ele>
        <time>2011-10-16T13:23:49Z</time>
      </trkpt>
      <trkpt lat="42.88146" lon="-0.39724">
        <ele>1313.29834</ele>
        <time>2011-10-16T13:24:08Z</time>
      </trkpt>
      <trkpt lat="42.88134" lon="-0.39715">
        <ele>1311.375732</ele>
        <time>2011-10-16T13:24:20Z</time>
      </trkpt>
      <trkpt lat="42.88129" lon="-0.39712">
        <ele>1310.89502</ele>
        <time>2011-10-16T13:24:29Z</time>
      </trkpt>
      <trkpt lat="42.88125" lon="-0.39703">
        <ele>1309.933594</ele>
        <time>2011-10-16T13:24:35Z</time>
      </trkpt>
      <trkpt lat="42.88118" lon="-0.39696">
        <ele>1307.530273</ele>
        <time>2011-10-16T13:24:42Z</time>
      </trkpt>
      <trkpt lat="42.88096" lon="-0.39685">
        <ele>1304.64624</ele>
        <time>2011-10-16T13:25:03Z</time>
      </trkpt>
      <trkpt lat="42.88079" lon="-0.39677">
        <ele>1301.281738</ele>
        <time>2011-10-16T13:25:21Z</time>
      </trkpt>
      <trkpt lat="42.88067" lon="-0.39672">
        <ele>1299.359131</ele>
        <time>2011-10-16T13:25:40Z</time>
      </trkpt>
      <trkpt lat="42.88056" lon="-0.39679">
        <ele>1297.917236</ele>
        <time>2011-10-16T13:25:56Z</time>
      </trkpt>
      <trkpt lat="42.88056" lon="-0.39678">
        <ele>1298.878418</ele>
        <time>2011-10-16T13:26:14Z</time>
      </trkpt>
      <trkpt lat="42.88056" lon="-0.39678">
        <ele>1297.917236</ele>
        <time>2011-10-16T13:26:32Z</time>
      </trkpt>
    </trkseg>
  </trk>
</gpx>